FDX169 KMEM-PANC
Flight info
| Callsign | FDX169 |
|---|---|
| Flight time | 6h 51m |
| Altitude | 31000 |
| Route | JTEEE5 ODATE DCT KK51I DCT KP66G DCT KP81E DCT ABR DCT MOT Q971 DURUR DCT 52N108W 53N111W DCT RESAX DCT TETAG DCT YQU DCT 56N122W 57N125W 58N130W DCT MITOM DCT DEEJA DCT COHIL NCA11 REMBY PTERS3 |
| Aircraft | MD11/H-VGDW/C |
Departure
| Time | 2026-05-07 12:02 |
|---|---|
| Airport | Memphis International Airport (KMEM) |
Arrival
| Time | 2026-05-07 18:53 |
|---|---|
| Airport | Ted Stevens Anchorage International Airport (PANC) |
| Time | Latitude | Longitude | Altitude | Speed | Heading |
|---|---|---|---|---|---|
| 2026-05-07 10:30 | 35.06266 | -89.97353 | 338 ft | 0 kts | 359° |
| 2026-05-07 11:35 | 35.06265 | -89.97353 | 338 ft | 1 kts | 359° |
| 2026-05-07 11:36 | 35.06247 | -89.97353 | 334 ft | 3 kts | 359° |
| 2026-05-07 11:36 | 35.06229 | -89.97353 | 333 ft | 3 kts | 355° |
| 2026-05-07 11:36 | 35.06212 | -89.97350 | 336 ft | 3 kts | 328° |
| 2026-05-07 11:36 | 35.06201 | -89.97341 | 333 ft | 3 kts | 290° |
| 2026-05-07 11:37 | 35.06197 | -89.97320 | 333 ft | 3 kts | 269° |
| 2026-05-07 11:37 | 35.06197 | -89.97298 | 333 ft | 0 kts | 270° |
| 2026-05-07 11:43 | 35.06197 | -89.97313 | 333 ft | 3 kts | 270° |
| 2026-05-07 11:43 | 35.06197 | -89.97349 | 334 ft | 5 kts | 270° |
| 2026-05-07 11:44 | 35.06197 | -89.97389 | 334 ft | 5 kts | 270° |
| 2026-05-07 11:44 | 35.06197 | -89.97433 | 334 ft | 5 kts | 270° |
| 2026-05-07 11:44 | 35.06196 | -89.97481 | 333 ft | 6 kts | 264° |
| 2026-05-07 11:44 | 35.06175 | -89.97526 | 333 ft | 6 kts | 218° |
| 2026-05-07 11:45 | 35.06131 | -89.97540 | 334 ft | 7 kts | 184° |
| 2026-05-07 11:45 | 35.06068 | -89.97541 | 335 ft | 10 kts | 179° |
| 2026-05-07 11:45 | 35.06001 | -89.97552 | 335 ft | 7 kts | 206° |
| 2026-05-07 11:45 | 35.05978 | -89.97600 | 333 ft | 7 kts | 260° |
| 2026-05-07 11:46 | 35.05983 | -89.97671 | 333 ft | 10 kts | 281° |
| 2026-05-07 11:46 | 35.05998 | -89.97752 | 334 ft | 10 kts | 283° |
| 2026-05-07 11:46 | 35.06007 | -89.97840 | 338 ft | 11 kts | 272° |
| 2026-05-07 11:46 | 35.06010 | -89.97936 | 334 ft | 12 kts | 272° |
| 2026-05-07 11:47 | 35.06013 | -89.98036 | 336 ft | 12 kts | 272° |
| 2026-05-07 11:47 | 35.06016 | -89.98133 | 338 ft | 11 kts | 272° |
| 2026-05-07 11:47 | 35.06019 | -89.98232 | 335 ft | 12 kts | 272° |
| 2026-05-07 11:47 | 35.06022 | -89.98333 | 334 ft | 11 kts | 271° |
| 2026-05-07 11:48 | 35.06024 | -89.98423 | 333 ft | 10 kts | 272° |
| 2026-05-07 11:48 | 35.06003 | -89.98488 | 335 ft | 7 kts | 226° |
| 2026-05-07 11:48 | 35.05965 | -89.98506 | 333 ft | 6 kts | 190° |
| 2026-05-07 11:48 | 35.05917 | -89.98508 | 335 ft | 9 kts | 178° |
| 2026-05-07 11:49 | 35.05839 | -89.98506 | 333 ft | 12 kts | 180° |
| 2026-05-07 11:49 | 35.05760 | -89.98507 | 334 ft | 10 kts | 181° |
| 2026-05-07 11:49 | 35.05699 | -89.98507 | 335 ft | 8 kts | 177° |
| 2026-05-07 11:49 | 35.05651 | -89.98507 | 335 ft | 6 kts | 181° |
| 2026-05-07 11:50 | 35.05608 | -89.98508 | 335 ft | 7 kts | 181° |
| 2026-05-07 11:50 | 35.05543 | -89.98508 | 335 ft | 11 kts | 178° |
| 2026-05-07 11:50 | 35.05451 | -89.98509 | 335 ft | 15 kts | 181° |
| 2026-05-07 11:50 | 35.05332 | -89.98511 | 335 ft | 19 kts | 180° |
| 2026-05-07 11:51 | 35.05191 | -89.98512 | 335 ft | 21 kts | 180° |
| 2026-05-07 11:51 | 35.05042 | -89.98514 | 335 ft | 21 kts | 180° |
| 2026-05-07 11:51 | 35.04900 | -89.98513 | 333 ft | 18 kts | 179° |
| 2026-05-07 11:51 | 35.04780 | -89.98511 | 336 ft | 16 kts | 179° |
| 2026-05-07 11:52 | 35.04672 | -89.98509 | 335 ft | 15 kts | 179° |
| 2026-05-07 11:52 | 35.04576 | -89.98507 | 335 ft | 13 kts | 179° |
| 2026-05-07 11:52 | 35.04490 | -89.98507 | 335 ft | 12 kts | 181° |
| 2026-05-07 11:52 | 35.04413 | -89.98506 | 335 ft | 10 kts | 177° |
| 2026-05-07 11:53 | 35.04344 | -89.98501 | 335 ft | 9 kts | 177° |
| 2026-05-07 11:53 | 35.04282 | -89.98499 | 335 ft | 9 kts | 178° |
| 2026-05-07 11:53 | 35.04219 | -89.98498 | 335 ft | 9 kts | 180° |
| 2026-05-07 11:53 | 35.04151 | -89.98497 | 335 ft | 10 kts | 179° |
| 2026-05-07 11:54 | 35.04069 | -89.98495 | 335 ft | 14 kts | 179° |
| 2026-05-07 11:54 | 35.03960 | -89.98493 | 335 ft | 17 kts | 179° |
| 2026-05-07 11:54 | 35.03846 | -89.98490 | 335 ft | 15 kts | 173° |
| 2026-05-07 11:54 | 35.03794 | -89.98432 | 332 ft | 10 kts | 107° |
| 2026-05-07 11:55 | 35.03790 | -89.98334 | 334 ft | 13 kts | 91° |
| 2026-05-07 11:55 | 35.03791 | -89.98209 | 334 ft | 16 kts | 89° |
| 2026-05-07 11:55 | 35.03795 | -89.98063 | 334 ft | 18 kts | 87° |
| 2026-05-07 11:55 | 35.03797 | -89.97925 | 334 ft | 14 kts | 89° |
| 2026-05-07 11:56 | 35.03761 | -89.97844 | 334 ft | 10 kts | 153° |
| 2026-05-07 11:56 | 35.03685 | -89.97831 | 333 ft | 12 kts | 177° |
| 2026-05-07 11:56 | 35.03595 | -89.97830 | 334 ft | 14 kts | 179° |
| 2026-05-07 11:56 | 35.03498 | -89.97827 | 334 ft | 14 kts | 180° |
| 2026-05-07 11:57 | 35.03399 | -89.97825 | 334 ft | 14 kts | 179° |
| 2026-05-07 11:57 | 35.03300 | -89.97823 | 334 ft | 15 kts | 179° |
| 2026-05-07 11:57 | 35.03191 | -89.97821 | 334 ft | 16 kts | 179° |
| 2026-05-07 11:57 | 35.03082 | -89.97818 | 334 ft | 16 kts | 178° |
| 2026-05-07 11:58 | 35.02977 | -89.97816 | 335 ft | 15 kts | 179° |
| 2026-05-07 11:58 | 35.02877 | -89.97813 | 335 ft | 14 kts | 179° |
| 2026-05-07 11:58 | 35.02782 | -89.97811 | 335 ft | 13 kts | 179° |
| 2026-05-07 11:58 | 35.02691 | -89.97810 | 335 ft | 13 kts | 179° |
| 2026-05-07 11:59 | 35.02600 | -89.97808 | 335 ft | 13 kts | 179° |
| 2026-05-07 11:59 | 35.02517 | -89.97806 | 335 ft | 11 kts | 179° |
| 2026-05-07 11:59 | 35.02447 | -89.97796 | 335 ft | 9 kts | 156° |
| 2026-05-07 11:59 | 35.02418 | -89.97745 | 333 ft | 7 kts | 104° |
| 2026-05-07 12:00 | 35.02413 | -89.97688 | 331 ft | 7 kts | 91° |
| 2026-05-07 12:00 | 35.02415 | -89.97618 | 330 ft | 10 kts | 88° |
| 2026-05-07 12:00 | 35.02425 | -89.97570 | 328 ft | 3 kts | 51° |
| 2026-05-07 12:00 | 35.02440 | -89.97560 | 328 ft | 3 kts | 24° |
| 2026-05-07 12:01 | 35.02463 | -89.97556 | 330 ft | 3 kts | 0° |
| 2026-05-07 12:01 | 35.02472 | -89.97557 | 329 ft | 0 kts | 356° |
| 2026-05-07 12:01 | 35.02723 | -89.97565 | 324 ft | 73 kts | 359° |
| 2026-05-07 12:02 | 35.03471 | -89.97577 | 327 ft | 139 kts | 359° |
| 2026-05-07 12:02 | 35.04620 | -89.97601 | 331 ft | 187 kts | 359° |
| 2026-05-07 12:02 | 35.05964 | -89.97627 | 695 ft | 194 kts | 359° |
| 2026-05-07 12:02 | 35.07292 | -89.97687 | 1510 ft | 187 kts | 359° |
| 2026-05-07 12:03 | 35.08571 | -89.97783 | 2304 ft | 184 kts | 357° |
| 2026-05-07 12:03 | 35.09855 | -89.98115 | 2882 ft | 193 kts | 348° |
| 2026-05-07 12:03 | 35.11139 | -89.98548 | 3539 ft | 196 kts | 349° |
| 2026-05-07 12:03 | 35.12552 | -89.99003 | 3713 ft | 221 kts | 348° |
| 2026-05-07 12:04 | 35.14111 | -89.99476 | 3869 ft | 239 kts | 351° |
| 2026-05-07 12:04 | 35.15790 | -89.99851 | 4046 ft | 253 kts | 353° |
| 2026-05-07 12:04 | 35.17589 | -90.00214 | 4201 ft | 271 kts | 352° |
| 2026-05-07 12:04 | 35.19488 | -90.00593 | 4525 ft | 279 kts | 352° |
| 2026-05-07 12:05 | 35.21411 | -90.00962 | 5011 ft | 281 kts | 354° |
| 2026-05-07 12:05 | 35.23370 | -90.01180 | 5482 ft | 284 kts | 356° |
| 2026-05-07 12:05 | 35.25352 | -90.01320 | 5964 ft | 287 kts | 356° |
| 2026-05-07 12:05 | 35.27357 | -90.01442 | 6448 ft | 289 kts | 355° |
| 2026-05-07 12:06 | 35.29377 | -90.01562 | 6880 ft | 292 kts | 354° |
| 2026-05-07 12:06 | 35.31392 | -90.01682 | 7300 ft | 294 kts | 354° |
| 2026-05-07 12:06 | 35.33450 | -90.01805 | 7717 ft | 296 kts | 353° |
| 2026-05-07 12:06 | 35.35516 | -90.01929 | 8136 ft | 298 kts | 353° |
| 2026-05-07 12:07 | 35.37596 | -90.02055 | 8554 ft | 300 kts | 352° |
| 2026-05-07 12:07 | 35.39687 | -90.02181 | 9001 ft | 302 kts | 352° |
| 2026-05-07 12:07 | 35.41794 | -90.02310 | 9460 ft | 305 kts | 351° |
| 2026-05-07 12:07 | 35.43908 | -90.02440 | 9996 ft | 314 kts | 351° |
| 2026-05-07 12:08 | 35.46153 | -90.02585 | 10293 ft | 336 kts | 351° |
| 2026-05-07 12:08 | 35.48548 | -90.02740 | 10702 ft | 349 kts | 351° |
| 2026-05-07 12:08 | 35.50989 | -90.02886 | 11402 ft | 353 kts | 350° |
| 2026-05-07 12:08 | 35.53461 | -90.03031 | 12077 ft | 358 kts | 350° |
| 2026-05-07 12:09 | 35.55967 | -90.03180 | 12740 ft | 363 kts | 349° |
| 2026-05-07 12:09 | 35.58504 | -90.03332 | 13387 ft | 368 kts | 349° |
| 2026-05-07 12:09 | 35.61078 | -90.03487 | 13997 ft | 372 kts | 349° |
| 2026-05-07 12:09 | 35.63681 | -90.03666 | 14525 ft | 377 kts | 348° |
| 2026-05-07 12:10 | 35.66319 | -90.03880 | 15042 ft | 381 kts | 347° |
| 2026-05-07 12:10 | 35.68983 | -90.04111 | 15544 ft | 386 kts | 346° |
| 2026-05-07 12:10 | 35.71684 | -90.04349 | 16054 ft | 391 kts | 346° |
| 2026-05-07 12:10 | 35.74415 | -90.04590 | 16555 ft | 397 kts | 346° |
| 2026-05-07 12:11 | 35.77186 | -90.04838 | 17084 ft | 400 kts | 345° |
| 2026-05-07 12:11 | 35.79898 | -90.05269 | 17539 ft | 395 kts | 337° |
| 2026-05-07 12:11 | 35.82489 | -90.06250 | 18019 ft | 383 kts | 325° |
| 2026-05-07 12:11 | 35.84745 | -90.07871 | 18472 ft | 369 kts | 311° |
| 2026-05-07 12:12 | 35.86565 | -90.10017 | 18900 ft | 356 kts | 300° |
| 2026-05-07 12:12 | 35.87915 | -90.12519 | 19346 ft | 346 kts | 289° |
| 2026-05-07 12:12 | 35.88804 | -90.15246 | 19778 ft | 339 kts | 279° |
| 2026-05-07 12:12 | 35.89234 | -90.18073 | 20223 ft | 334 kts | 270° |
| 2026-05-07 12:13 | 35.89219 | -90.20917 | 20668 ft | 331 kts | 262° |
| 2026-05-07 12:13 | 35.88837 | -90.23715 | 21112 ft | 331 kts | 257° |
| 2026-05-07 12:13 | 35.88321 | -90.26452 | 21544 ft | 332 kts | 256° |
| 2026-05-07 12:13 | 35.87771 | -90.29220 | 21979 ft | 333 kts | 256° |
| 2026-05-07 12:14 | 35.87224 | -90.31996 | 22410 ft | 334 kts | 256° |
| 2026-05-07 12:14 | 35.86690 | -90.34787 | 22819 ft | 335 kts | 257° |
| 2026-05-07 12:14 | 35.86318 | -90.37628 | 23242 ft | 337 kts | 263° |
| 2026-05-07 12:14 | 35.86333 | -90.40543 | 23642 ft | 343 kts | 272° |
| 2026-05-07 12:15 | 35.86758 | -90.43454 | 23961 ft | 348 kts | 277° |
| 2026-05-07 12:15 | 35.87358 | -90.46354 | 24302 ft | 350 kts | 278° |
| 2026-05-07 12:15 | 35.88004 | -90.49260 | 24635 ft | 351 kts | 278° |
| 2026-05-07 12:15 | 35.88649 | -90.52166 | 24971 ft | 352 kts | 278° |
| 2026-05-07 12:16 | 35.89284 | -90.55085 | 25302 ft | 352 kts | 278° |
| 2026-05-07 12:16 | 35.89909 | -90.58003 | 25627 ft | 353 kts | 278° |
| 2026-05-07 12:16 | 35.90528 | -90.60935 | 25948 ft | 353 kts | 277° |
| 2026-05-07 12:16 | 35.91143 | -90.63873 | 26270 ft | 354 kts | 277° |
| 2026-05-07 12:17 | 35.91755 | -90.66815 | 26583 ft | 355 kts | 277° |
| 2026-05-07 12:17 | 35.92368 | -90.69765 | 26902 ft | 355 kts | 277° |
| 2026-05-07 12:17 | 35.92980 | -90.72726 | 27202 ft | 356 kts | 277° |
| 2026-05-07 12:17 | 35.93585 | -90.75653 | 27495 ft | 357 kts | 277° |
| 2026-05-07 12:18 | 35.94199 | -90.78630 | 27812 ft | 358 kts | 277° |
| 2026-05-07 12:18 | 35.94812 | -90.81611 | 28091 ft | 359 kts | 277° |
| 2026-05-07 12:18 | 35.95428 | -90.84605 | 28370 ft | 359 kts | 277° |
| 2026-05-07 12:18 | 35.96042 | -90.87598 | 28644 ft | 360 kts | 277° |
| 2026-05-07 12:19 | 35.96659 | -90.90604 | 28901 ft | 361 kts | 277° |
| 2026-05-07 12:19 | 35.97266 | -90.93568 | 29154 ft | 362 kts | 277° |
| 2026-05-07 12:19 | 35.97883 | -90.96588 | 29397 ft | 363 kts | 277° |
| 2026-05-07 12:19 | 35.98501 | -90.99612 | 29645 ft | 364 kts | 277° |
| 2026-05-07 12:20 | 35.99119 | -91.02644 | 29889 ft | 364 kts | 277° |
| 2026-05-07 12:20 | 35.99738 | -91.05684 | 30096 ft | 367 kts | 277° |
| 2026-05-07 12:20 | 36.00362 | -91.08757 | 30136 ft | 369 kts | 277° |
| 2026-05-07 12:21 | 36.01398 | -91.13849 | 30139 ft | 367 kts | 277° |
| 2026-05-07 12:21 | 36.02636 | -91.19954 | 30139 ft | 366 kts | 276° |
| 2026-05-07 12:22 | 36.03868 | -91.26063 | 30134 ft | 367 kts | 276° |
| 2026-05-07 12:22 | 36.05099 | -91.32180 | 30132 ft | 367 kts | 276° |
| 2026-05-07 12:23 | 36.06320 | -91.38260 | 30145 ft | 366 kts | 276° |
| 2026-05-07 12:23 | 36.07530 | -91.44380 | 30145 ft | 366 kts | 276° |
| 2026-05-07 12:24 | 36.08730 | -91.50505 | 30137 ft | 366 kts | 276° |
| 2026-05-07 12:24 | 36.09939 | -91.56628 | 30139 ft | 367 kts | 276° |
| 2026-05-07 12:25 | 36.11155 | -91.62768 | 30140 ft | 368 kts | 276° |
| 2026-05-07 12:25 | 36.12364 | -91.68878 | 30137 ft | 367 kts | 276° |
| 2026-05-07 12:26 | 36.13576 | -91.75022 | 30148 ft | 367 kts | 276° |
| 2026-05-07 12:26 | 36.14784 | -91.81161 | 30149 ft | 367 kts | 276° |
| 2026-05-07 12:27 | 36.15990 | -91.87306 | 30142 ft | 367 kts | 276° |
| 2026-05-07 12:27 | 36.17184 | -91.93411 | 30148 ft | 367 kts | 276° |
| 2026-05-07 12:28 | 36.18385 | -91.99571 | 30146 ft | 368 kts | 276° |
| 2026-05-07 12:28 | 36.19585 | -92.05742 | 30144 ft | 368 kts | 276° |
| 2026-05-07 12:29 | 36.20780 | -92.11906 | 30143 ft | 368 kts | 276° |
| 2026-05-07 12:29 | 36.21970 | -92.18061 | 30152 ft | 368 kts | 276° |
| 2026-05-07 12:30 | 36.23383 | -92.24142 | 30165 ft | 379 kts | 286° |
| 2026-05-07 12:30 | 36.24800 | -92.26977 | 30139 ft | 397 kts | 296° |
| 2026-05-07 12:30 | 36.26792 | -92.29461 | 30162 ft | 418 kts | 307° |
| 2026-05-07 12:30 | 36.29299 | -92.31465 | 30145 ft | 442 kts | 318° |
| 2026-05-07 12:31 | 36.32244 | -92.32880 | 30146 ft | 467 kts | 329° |
| 2026-05-07 12:31 | 36.35531 | -92.33611 | 30137 ft | 492 kts | 340° |
| 2026-05-07 12:31 | 36.39002 | -92.33754 | 30149 ft | 505 kts | 345° |
| 2026-05-07 12:32 | 36.46100 | -92.33391 | 30137 ft | 514 kts | 348° |
| 2026-05-07 12:32 | 36.53229 | -92.33025 | 30138 ft | 502 kts | 342° |
| 2026-05-07 12:32 | 36.56647 | -92.33368 | 30141 ft | 486 kts | 336° |
| 2026-05-07 12:33 | 36.63116 | -92.35084 | 30138 ft | 468 kts | 329° |
| 2026-05-07 12:33 | 36.69336 | -92.37339 | 30137 ft | 465 kts | 327° |
| 2026-05-07 12:34 | 36.75496 | -92.39622 | 30237 ft | 464 kts | 329° |
| 2026-05-07 12:34 | 36.81711 | -92.41869 | 30243 ft | 464 kts | 330° |
| 2026-05-07 12:35 | 36.87930 | -92.44096 | 30240 ft | 465 kts | 330° |
| 2026-05-07 12:35 | 36.94161 | -92.46325 | 30238 ft | 465 kts | 330° |
| 2026-05-07 12:36 | 37.00343 | -92.48543 | 30249 ft | 464 kts | 331° |
| 2026-05-07 12:36 | 37.06547 | -92.50779 | 30240 ft | 463 kts | 331° |
| 2026-05-07 12:37 | 37.12750 | -92.53021 | 30236 ft | 463 kts | 331° |
| 2026-05-07 12:37 | 37.18946 | -92.55258 | 30236 ft | 463 kts | 331° |
| 2026-05-07 12:38 | 37.25153 | -92.57503 | 30242 ft | 463 kts | 334° |
| 2026-05-07 12:38 | 37.31294 | -92.59723 | 30233 ft | 461 kts | 334° |
| 2026-05-07 12:39 | 37.37475 | -92.61963 | 30237 ft | 462 kts | 334° |
| 2026-05-07 12:39 | 37.43652 | -92.64207 | 30241 ft | 462 kts | 334° |
| 2026-05-07 12:40 | 37.49826 | -92.66454 | 30254 ft | 460 kts | 335° |
| 2026-05-07 12:40 | 37.55963 | -92.68688 | 30253 ft | 458 kts | 336° |
| 2026-05-07 12:41 | 37.62037 | -92.70904 | 30254 ft | 457 kts | 336° |
| 2026-05-07 12:41 | 37.68153 | -92.73142 | 30256 ft | 457 kts | 336° |
| 2026-05-07 12:42 | 37.74258 | -92.75377 | 30257 ft | 456 kts | 336° |
| 2026-05-07 12:42 | 37.80341 | -92.77608 | 30252 ft | 455 kts | 336° |
| 2026-05-07 12:43 | 37.86423 | -92.79852 | 30243 ft | 455 kts | 336° |
| 2026-05-07 12:43 | 37.92466 | -92.82086 | 30270 ft | 455 kts | 336° |
| 2026-05-07 12:44 | 37.98535 | -92.84325 | 30232 ft | 452 kts | 337° |
| 2026-05-07 12:44 | 38.04567 | -92.86552 | 30230 ft | 450 kts | 337° |
| 2026-05-07 12:45 | 38.10590 | -92.88783 | 30232 ft | 451 kts | 337° |
| 2026-05-07 12:45 | 38.16630 | -92.91023 | 30252 ft | 451 kts | 337° |
| 2026-05-07 12:46 | 38.22609 | -92.93242 | 30233 ft | 449 kts | 337° |
| 2026-05-07 12:46 | 38.28607 | -92.95473 | 30234 ft | 449 kts | 337° |
| 2026-05-07 12:47 | 38.34613 | -92.97711 | 30234 ft | 449 kts | 337° |
| 2026-05-07 12:47 | 38.40615 | -92.99952 | 30234 ft | 449 kts | 337° |
| 2026-05-07 12:48 | 38.46622 | -93.02197 | 30232 ft | 449 kts | 337° |
| 2026-05-07 12:48 | 38.52617 | -93.04443 | 30231 ft | 449 kts | 337° |
| 2026-05-07 12:49 | 38.58561 | -93.06673 | 30228 ft | 447 kts | 338° |
| 2026-05-07 12:49 | 38.64503 | -93.08908 | 30232 ft | 443 kts | 337° |
| 2026-05-07 12:50 | 38.70400 | -93.11139 | 30228 ft | 441 kts | 337° |
| 2026-05-07 12:50 | 38.76296 | -93.13369 | 30228 ft | 442 kts | 337° |
| 2026-05-07 12:51 | 38.82198 | -93.15601 | 30228 ft | 442 kts | 337° |
| 2026-05-07 12:51 | 38.88100 | -93.17834 | 30243 ft | 441 kts | 337° |
| 2026-05-07 12:52 | 38.93953 | -93.20051 | 30219 ft | 439 kts | 337° |
| 2026-05-07 12:52 | 38.99811 | -93.22276 | 30219 ft | 439 kts | 337° |
| 2026-05-07 12:53 | 39.05678 | -93.24509 | 30219 ft | 439 kts | 337° |
| 2026-05-07 12:53 | 39.11540 | -93.26743 | 30223 ft | 439 kts | 337° |
| 2026-05-07 12:54 | 39.17398 | -93.28978 | 30218 ft | 438 kts | 337° |
| 2026-05-07 12:54 | 39.23208 | -93.31200 | 30217 ft | 438 kts | 337° |
| 2026-05-07 12:55 | 39.29063 | -93.33444 | 30215 ft | 438 kts | 337° |
| 2026-05-07 12:55 | 39.34904 | -93.35685 | 30215 ft | 437 kts | 337° |
| 2026-05-07 12:56 | 39.40735 | -93.37926 | 30197 ft | 437 kts | 337° |
| 2026-05-07 12:56 | 39.46561 | -93.40180 | 30192 ft | 437 kts | 337° |
| 2026-05-07 12:57 | 39.52387 | -93.42437 | 30209 ft | 437 kts | 337° |
| 2026-05-07 12:57 | 39.58182 | -93.44679 | 30203 ft | 436 kts | 337° |
| 2026-05-07 12:58 | 39.64001 | -93.46931 | 30194 ft | 436 kts | 337° |
| 2026-05-07 12:58 | 39.69823 | -93.49190 | 30193 ft | 436 kts | 337° |
| 2026-05-07 12:59 | 39.75635 | -93.51448 | 30233 ft | 436 kts | 336° |
| 2026-05-07 12:59 | 39.81453 | -93.53711 | 30188 ft | 436 kts | 336° |
| 2026-05-07 13:00 | 39.87224 | -93.55961 | 30187 ft | 435 kts | 336° |
| 2026-05-07 13:00 | 39.93026 | -93.58227 | 30186 ft | 435 kts | 336° |
| 2026-05-07 13:01 | 39.98828 | -93.60497 | 30182 ft | 435 kts | 336° |
| 2026-05-07 13:01 | 40.04618 | -93.62766 | 30180 ft | 434 kts | 336° |
| 2026-05-07 13:02 | 40.10367 | -93.65023 | 30172 ft | 434 kts | 336° |
| 2026-05-07 13:02 | 40.16144 | -93.67296 | 30162 ft | 434 kts | 336° |
| 2026-05-07 13:03 | 40.21934 | -93.69578 | 30182 ft | 434 kts | 336° |
| 2026-05-07 13:03 | 40.27706 | -93.71868 | 30158 ft | 433 kts | 336° |
| 2026-05-07 13:04 | 40.33454 | -93.74149 | 30151 ft | 433 kts | 336° |
| 2026-05-07 13:04 | 40.39222 | -93.76436 | 30145 ft | 433 kts | 336° |
| 2026-05-07 13:05 | 40.44948 | -93.78709 | 30141 ft | 432 kts | 336° |
| 2026-05-07 13:05 | 40.50696 | -93.80993 | 30123 ft | 431 kts | 336° |
| 2026-05-07 13:06 | 40.56416 | -93.83269 | 30127 ft | 427 kts | 336° |
| 2026-05-07 13:06 | 40.62100 | -93.85537 | 30126 ft | 427 kts | 336° |
| 2026-05-07 13:07 | 40.67794 | -93.87815 | 30127 ft | 427 kts | 336° |
| 2026-05-07 13:07 | 40.73444 | -93.90078 | 30126 ft | 427 kts | 336° |
| 2026-05-07 13:08 | 40.79126 | -93.92357 | 30118 ft | 427 kts | 336° |
| 2026-05-07 13:08 | 40.84822 | -93.94647 | 30146 ft | 427 kts | 336° |
| 2026-05-07 13:09 | 40.90497 | -93.96930 | 30115 ft | 426 kts | 336° |
| 2026-05-07 13:09 | 40.96166 | -93.99216 | 30110 ft | 425 kts | 336° |
| 2026-05-07 13:10 | 41.01786 | -94.01490 | 30109 ft | 425 kts | 335° |
| 2026-05-07 13:10 | 41.07121 | -94.04578 | 30150 ft | 415 kts | 325° |
| 2026-05-07 13:11 | 41.12073 | -94.08444 | 30099 ft | 410 kts | 323° |
| 2026-05-07 13:11 | 41.16137 | -94.11681 | 30119 ft | 409 kts | 323° |
| 2026-05-07 13:12 | 41.21045 | -94.15534 | 30114 ft | 410 kts | 324° |
| 2026-05-07 13:12 | 41.25970 | -94.19364 | 30096 ft | 410 kts | 324° |
| 2026-05-07 13:13 | 41.30888 | -94.23183 | 30098 ft | 408 kts | 324° |
| 2026-05-07 13:13 | 41.35782 | -94.26988 | 30087 ft | 406 kts | 324° |
| 2026-05-07 13:14 | 41.40636 | -94.30772 | 30087 ft | 407 kts | 324° |
| 2026-05-07 13:14 | 41.45520 | -94.34586 | 30089 ft | 407 kts | 324° |
| 2026-05-07 13:15 | 41.50408 | -94.38408 | 30096 ft | 407 kts | 324° |
| 2026-05-07 13:15 | 41.55285 | -94.42229 | 30083 ft | 406 kts | 324° |
| 2026-05-07 13:16 | 41.60154 | -94.46051 | 30083 ft | 406 kts | 324° |
| 2026-05-07 13:16 | 41.65024 | -94.49881 | 30078 ft | 406 kts | 324° |
| 2026-05-07 13:17 | 41.69863 | -94.53692 | 30116 ft | 406 kts | 324° |
| 2026-05-07 13:17 | 41.74718 | -94.57521 | 30040 ft | 404 kts | 324° |
| 2026-05-07 13:18 | 41.79547 | -94.61359 | 30071 ft | 403 kts | 324° |
| 2026-05-07 13:18 | 41.84384 | -94.65211 | 30077 ft | 404 kts | 324° |
| 2026-05-07 13:19 | 41.89211 | -94.69047 | 30128 ft | 404 kts | 324° |
| 2026-05-07 13:19 | 41.94006 | -94.72858 | 30085 ft | 402 kts | 324° |
| 2026-05-07 13:20 | 41.98820 | -94.76689 | 30076 ft | 401 kts | 324° |
| 2026-05-07 13:20 | 42.03622 | -94.80520 | 30075 ft | 402 kts | 324° |
| 2026-05-07 13:21 | 42.08433 | -94.84364 | 30081 ft | 402 kts | 324° |
| 2026-05-07 13:21 | 42.13241 | -94.88212 | 30089 ft | 401 kts | 324° |
| 2026-05-07 13:22 | 42.18014 | -94.92037 | 30079 ft | 398 kts | 324° |
| 2026-05-07 13:22 | 42.22746 | -94.95839 | 30020 ft | 398 kts | 324° |
| 2026-05-07 13:23 | 42.27528 | -94.99689 | 30083 ft | 401 kts | 324° |
| 2026-05-07 13:23 | 42.32318 | -95.03551 | 30082 ft | 400 kts | 324° |
| 2026-05-07 13:24 | 42.37084 | -95.07396 | 30061 ft | 397 kts | 324° |
| 2026-05-07 13:24 | 42.41822 | -95.11229 | 30055 ft | 397 kts | 324° |
| 2026-05-07 13:25 | 42.46539 | -95.15053 | 30049 ft | 398 kts | 324° |
| 2026-05-07 13:25 | 42.51273 | -95.18919 | 30060 ft | 397 kts | 324° |
| 2026-05-07 13:26 | 42.56000 | -95.22783 | 30043 ft | 395 kts | 324° |
| 2026-05-07 13:26 | 42.60709 | -95.26627 | 30045 ft | 395 kts | 324° |
| 2026-05-07 13:27 | 42.65425 | -95.30478 | 30043 ft | 395 kts | 324° |
| 2026-05-07 13:27 | 42.70142 | -95.34335 | 30023 ft | 395 kts | 324° |
| 2026-05-07 13:28 | 42.74830 | -95.38177 | 30053 ft | 397 kts | 324° |
| 2026-05-07 13:28 | 42.79568 | -95.42064 | 30054 ft | 397 kts | 324° |
| 2026-05-07 13:29 | 42.84296 | -95.45950 | 30055 ft | 397 kts | 324° |
| 2026-05-07 13:29 | 42.89028 | -95.49848 | 30080 ft | 397 kts | 324° |
| 2026-05-07 13:30 | 42.93727 | -95.53725 | 30060 ft | 396 kts | 324° |
| 2026-05-07 13:30 | 42.98432 | -95.57613 | 30061 ft | 395 kts | 324° |
| 2026-05-07 13:31 | 43.03136 | -95.61510 | 30058 ft | 396 kts | 324° |
| 2026-05-07 13:31 | 43.07847 | -95.65418 | 30043 ft | 396 kts | 324° |
| 2026-05-07 13:32 | 43.12559 | -95.69334 | 30043 ft | 395 kts | 324° |
| 2026-05-07 13:32 | 43.17247 | -95.73237 | 30022 ft | 394 kts | 324° |
| 2026-05-07 13:33 | 43.21953 | -95.77184 | 30034 ft | 397 kts | 324° |
| 2026-05-07 13:33 | 43.26666 | -95.81145 | 30034 ft | 397 kts | 324° |
| 2026-05-07 13:34 | 43.33722 | -95.87065 | 30038 ft | 396 kts | 325° |
| 2026-05-07 13:35 | 43.38386 | -95.90980 | 30043 ft | 395 kts | 324° |
| 2026-05-07 13:35 | 43.43085 | -95.94934 | 30045 ft | 396 kts | 324° |
| 2026-05-07 13:36 | 43.47781 | -95.98891 | 30090 ft | 396 kts | 325° |
| 2026-05-07 13:36 | 43.52472 | -96.02851 | 30067 ft | 394 kts | 325° |
| 2026-05-07 13:37 | 43.56875 | -96.07279 | 30060 ft | 391 kts | 318° |
| 2026-05-07 13:37 | 43.60954 | -96.12171 | 30045 ft | 392 kts | 317° |
| 2026-05-07 13:38 | 43.65068 | -96.17163 | 30054 ft | 394 kts | 317° |
| 2026-05-07 13:38 | 43.69195 | -96.22131 | 30062 ft | 393 kts | 317° |
| 2026-05-07 13:39 | 43.73313 | -96.27073 | 30055 ft | 391 kts | 317° |
| 2026-05-07 13:39 | 43.77421 | -96.32009 | 30057 ft | 391 kts | 317° |
| 2026-05-07 13:40 | 43.81539 | -96.36965 | 30068 ft | 391 kts | 317° |
| 2026-05-07 13:40 | 43.85620 | -96.41886 | 30084 ft | 391 kts | 318° |
| 2026-05-07 13:41 | 43.89723 | -96.46843 | 30012 ft | 390 kts | 318° |
| 2026-05-07 13:41 | 43.93822 | -96.51804 | 30064 ft | 393 kts | 318° |
| 2026-05-07 13:42 | 43.97952 | -96.56813 | 30079 ft | 394 kts | 318° |
| 2026-05-07 13:42 | 44.02077 | -96.61825 | 30079 ft | 394 kts | 318° |
| 2026-05-07 13:43 | 44.06202 | -96.66847 | 30086 ft | 393 kts | 318° |
| 2026-05-07 13:43 | 44.10310 | -96.71858 | 30070 ft | 392 kts | 318° |
| 2026-05-07 13:44 | 44.14380 | -96.76831 | 30073 ft | 392 kts | 318° |
| 2026-05-07 13:44 | 44.18470 | -96.81855 | 30071 ft | 392 kts | 318° |
| 2026-05-07 13:45 | 44.22554 | -96.86908 | 30019 ft | 394 kts | 318° |
| 2026-05-07 13:45 | 44.26658 | -96.91972 | 30075 ft | 394 kts | 318° |
| 2026-05-07 13:46 | 44.30775 | -96.97046 | 30055 ft | 394 kts | 318° |
| 2026-05-07 13:46 | 44.34861 | -97.02088 | 30059 ft | 394 kts | 318° |
| 2026-05-07 13:47 | 44.38976 | -97.07176 | 30065 ft | 394 kts | 318° |
| 2026-05-07 13:47 | 44.43086 | -97.12268 | 30074 ft | 393 kts | 319° |
| 2026-05-07 13:48 | 44.47170 | -97.17336 | 30058 ft | 392 kts | 318° |
| 2026-05-07 13:48 | 44.51256 | -97.22418 | 30068 ft | 393 kts | 318° |
| 2026-05-07 13:49 | 44.55318 | -97.27478 | 30072 ft | 393 kts | 318° |
| 2026-05-07 13:49 | 44.59388 | -97.32561 | 30060 ft | 392 kts | 318° |
| 2026-05-07 13:50 | 44.63468 | -97.37665 | 30050 ft | 393 kts | 318° |
| 2026-05-07 13:50 | 44.67553 | -97.42785 | 30056 ft | 393 kts | 318° |
| 2026-05-07 13:51 | 44.71600 | -97.47867 | 30055 ft | 393 kts | 318° |
| 2026-05-07 13:51 | 44.75672 | -97.52992 | 30071 ft | 393 kts | 319° |
| 2026-05-07 13:52 | 44.79735 | -97.58122 | 30057 ft | 391 kts | 319° |
| 2026-05-07 13:52 | 44.83762 | -97.63255 | 30042 ft | 391 kts | 318° |
| 2026-05-07 13:53 | 44.87836 | -97.68437 | 30050 ft | 396 kts | 318° |
| 2026-05-07 13:53 | 44.91926 | -97.73631 | 30049 ft | 395 kts | 318° |
| 2026-05-07 13:54 | 44.96004 | -97.78816 | 30048 ft | 394 kts | 319° |
| 2026-05-07 13:54 | 45.00071 | -97.83994 | 30047 ft | 393 kts | 319° |
| 2026-05-07 13:55 | 45.04131 | -97.89175 | 30047 ft | 394 kts | 319° |
| 2026-05-07 13:55 | 45.08201 | -97.94379 | 30051 ft | 394 kts | 319° |
| 2026-05-07 13:56 | 45.12234 | -97.99546 | 30054 ft | 393 kts | 319° |
| 2026-05-07 13:56 | 45.16285 | -98.04746 | 30048 ft | 392 kts | 319° |
| 2026-05-07 13:57 | 45.20328 | -98.09946 | 30053 ft | 392 kts | 319° |
| 2026-05-07 13:57 | 45.24377 | -98.15164 | 30005 ft | 395 kts | 319° |
| 2026-05-07 13:58 | 45.28461 | -98.20439 | 30010 ft | 397 kts | 319° |
| 2026-05-07 13:58 | 45.32543 | -98.25721 | 30057 ft | 396 kts | 319° |
| 2026-05-07 13:59 | 45.36634 | -98.30925 | 30061 ft | 396 kts | 322° |
| 2026-05-07 13:59 | 45.41097 | -98.35531 | 30062 ft | 396 kts | 326° |
| 2026-05-07 14:00 | 45.45676 | -98.39915 | 30062 ft | 396 kts | 326° |
| 2026-05-07 14:00 | 45.50245 | -98.44301 | 30063 ft | 395 kts | 326° |
| 2026-05-07 14:01 | 45.54022 | -98.47956 | 30058 ft | 394 kts | 326° |
| 2026-05-07 14:01 | 45.58562 | -98.52368 | 30060 ft | 395 kts | 326° |
| 2026-05-07 14:02 | 45.63110 | -98.56801 | 30060 ft | 395 kts | 326° |
| 2026-05-07 14:02 | 45.67647 | -98.61232 | 30058 ft | 395 kts | 326° |
| 2026-05-07 14:03 | 45.72152 | -98.65640 | 30016 ft | 394 kts | 326° |
| 2026-05-07 14:03 | 45.76714 | -98.70113 | 30045 ft | 400 kts | 326° |
| 2026-05-07 14:04 | 45.81320 | -98.74639 | 30043 ft | 400 kts | 326° |
| 2026-05-07 14:04 | 45.85899 | -98.79147 | 30053 ft | 399 kts | 326° |
| 2026-05-07 14:05 | 45.90475 | -98.83661 | 30048 ft | 399 kts | 326° |
| 2026-05-07 14:05 | 45.95016 | -98.88150 | 30038 ft | 399 kts | 326° |
| 2026-05-07 14:06 | 45.99594 | -98.92684 | 30039 ft | 399 kts | 326° |
| 2026-05-07 14:06 | 46.04172 | -98.97228 | 30036 ft | 399 kts | 326° |
| 2026-05-07 14:07 | 46.08726 | -99.01790 | 30036 ft | 399 kts | 326° |
| 2026-05-07 14:07 | 46.13257 | -99.06333 | 30036 ft | 399 kts | 326° |
| 2026-05-07 14:08 | 46.17819 | -99.10897 | 30037 ft | 399 kts | 326° |
| 2026-05-07 14:08 | 46.22357 | -99.15440 | 30029 ft | 399 kts | 326° |
| 2026-05-07 14:09 | 46.26909 | -99.20005 | 30032 ft | 398 kts | 326° |
| 2026-05-07 14:09 | 46.31460 | -99.24577 | 29991 ft | 398 kts | 326° |
| 2026-05-07 14:10 | 46.36050 | -99.29199 | 30022 ft | 403 kts | 326° |
| 2026-05-07 14:10 | 46.40664 | -99.33855 | 30035 ft | 404 kts | 326° |
| 2026-05-07 14:11 | 46.45274 | -99.38517 | 30041 ft | 404 kts | 326° |
| 2026-05-07 14:11 | 46.49882 | -99.43186 | 30042 ft | 404 kts | 326° |
| 2026-05-07 14:12 | 46.54487 | -99.47862 | 30039 ft | 404 kts | 326° |
| 2026-05-07 14:12 | 46.59065 | -99.52521 | 30053 ft | 404 kts | 326° |
| 2026-05-07 14:13 | 46.63665 | -99.57211 | 30046 ft | 403 kts | 326° |
| 2026-05-07 14:13 | 46.68266 | -99.61913 | 30049 ft | 403 kts | 326° |
| 2026-05-07 14:14 | 46.72858 | -99.66617 | 30052 ft | 404 kts | 326° |
| 2026-05-07 14:14 | 46.77410 | -99.71325 | 30058 ft | 404 kts | 326° |
| 2026-05-07 14:15 | 46.81994 | -99.76067 | 30058 ft | 404 kts | 326° |
| 2026-05-07 14:15 | 46.86580 | -99.80801 | 30057 ft | 404 kts | 326° |
| 2026-05-07 14:16 | 46.91170 | -99.85542 | 30021 ft | 403 kts | 326° |
| 2026-05-07 14:16 | 46.95778 | -99.90311 | 30070 ft | 407 kts | 325° |
| 2026-05-07 14:17 | 47.00374 | -99.95078 | 30060 ft | 407 kts | 326° |
| 2026-05-07 14:17 | 47.04998 | -99.99886 | 30061 ft | 407 kts | 326° |
| 2026-05-07 14:18 | 47.09622 | -100.04703 | 30061 ft | 407 kts | 326° |
| 2026-05-07 14:18 | 47.14249 | -100.09533 | 30060 ft | 407 kts | 325° |
| 2026-05-07 14:19 | 47.18868 | -100.14367 | 30059 ft | 407 kts | 326° |
| 2026-05-07 14:19 | 47.23477 | -100.19200 | 30057 ft | 407 kts | 326° |
| 2026-05-07 14:20 | 47.28062 | -100.24018 | 30057 ft | 407 kts | 325° |
| 2026-05-07 14:20 | 47.32681 | -100.28882 | 30057 ft | 407 kts | 325° |
| 2026-05-07 14:21 | 47.37297 | -100.33755 | 30049 ft | 408 kts | 326° |
| 2026-05-07 14:21 | 47.41909 | -100.38642 | 30045 ft | 408 kts | 325° |
| 2026-05-07 14:22 | 47.46487 | -100.43538 | 30043 ft | 408 kts | 325° |
| 2026-05-07 14:22 | 47.51091 | -100.48451 | 29992 ft | 408 kts | 325° |
| 2026-05-07 14:23 | 47.55712 | -100.53378 | 30039 ft | 411 kts | 325° |
| 2026-05-07 14:23 | 47.60368 | -100.58347 | 30036 ft | 412 kts | 325° |
| 2026-05-07 14:24 | 47.65019 | -100.63322 | 30027 ft | 412 kts | 325° |
| 2026-05-07 14:24 | 47.69667 | -100.68305 | 30027 ft | 412 kts | 325° |
| 2026-05-07 14:25 | 47.74321 | -100.73305 | 30025 ft | 412 kts | 325° |
| 2026-05-07 14:25 | 47.78938 | -100.78277 | 30024 ft | 412 kts | 325° |
| 2026-05-07 14:26 | 47.83582 | -100.83289 | 30020 ft | 412 kts | 325° |
| 2026-05-07 14:26 | 47.88229 | -100.88316 | 30020 ft | 412 kts | 325° |
| 2026-05-07 14:27 | 47.92876 | -100.93354 | 30020 ft | 413 kts | 325° |
| 2026-05-07 14:27 | 47.97526 | -100.98407 | 30020 ft | 413 kts | 325° |
| 2026-05-07 14:28 | 48.02169 | -101.03464 | 30022 ft | 413 kts | 325° |
| 2026-05-07 14:28 | 48.06815 | -101.08536 | 30025 ft | 413 kts | 325° |
| 2026-05-07 14:29 | 48.11421 | -101.13606 | 30035 ft | 413 kts | 325° |
| 2026-05-07 14:29 | 48.16063 | -101.18734 | 30030 ft | 416 kts | 324° |
| 2026-05-07 14:30 | 48.20743 | -101.23891 | 30033 ft | 418 kts | 324° |
| 2026-05-07 14:30 | 48.25425 | -101.29052 | 30033 ft | 418 kts | 324° |
| 2026-05-07 14:31 | 48.30087 | -101.34271 | 30030 ft | 418 kts | 322° |
| 2026-05-07 14:31 | 48.34447 | -101.40090 | 30017 ft | 419 kts | 319° |
| 2026-05-07 14:32 | 48.38679 | -101.46116 | 30016 ft | 419 kts | 318° |
| 2026-05-07 14:32 | 48.42919 | -101.52143 | 30014 ft | 419 kts | 319° |
| 2026-05-07 14:33 | 48.47169 | -101.58155 | 30016 ft | 419 kts | 319° |
| 2026-05-07 14:33 | 48.51396 | -101.64134 | 30030 ft | 419 kts | 319° |
| 2026-05-07 14:34 | 48.55646 | -101.70158 | 30031 ft | 419 kts | 319° |
| 2026-05-07 14:34 | 48.59894 | -101.76193 | 30033 ft | 419 kts | 319° |
| 2026-05-07 14:35 | 48.64140 | -101.82241 | 30032 ft | 420 kts | 318° |
| 2026-05-07 14:35 | 48.68421 | -101.88353 | 30039 ft | 424 kts | 318° |
| 2026-05-07 14:36 | 48.72701 | -101.94482 | 30044 ft | 423 kts | 318° |
| 2026-05-07 14:36 | 48.76981 | -102.00625 | 30053 ft | 424 kts | 318° |
| 2026-05-07 14:37 | 48.81257 | -102.06776 | 30047 ft | 424 kts | 318° |
| 2026-05-07 14:37 | 48.87674 | -102.16036 | 30060 ft | 424 kts | 318° |
| 2026-05-07 14:38 | 48.91936 | -102.22226 | 30053 ft | 424 kts | 317° |
| 2026-05-07 14:38 | 48.96168 | -102.28428 | 30070 ft | 424 kts | 317° |
| 2026-05-07 14:39 | 49.00426 | -102.34652 | 30065 ft | 424 kts | 317° |
| 2026-05-07 14:39 | 49.04686 | -102.40878 | 30061 ft | 424 kts | 317° |
| 2026-05-07 14:40 | 49.08952 | -102.47117 | 30069 ft | 426 kts | 317° |
| 2026-05-07 14:40 | 49.13246 | -102.53410 | 30064 ft | 428 kts | 317° |
| 2026-05-07 14:41 | 49.17507 | -102.59670 | 30059 ft | 427 kts | 317° |
| 2026-05-07 14:41 | 49.21792 | -102.65982 | 30056 ft | 428 kts | 317° |
| 2026-05-07 14:42 | 49.26076 | -102.72307 | 30074 ft | 427 kts | 317° |
| 2026-05-07 14:42 | 49.30350 | -102.78635 | 30077 ft | 428 kts | 317° |
| 2026-05-07 14:43 | 49.34629 | -102.84985 | 30075 ft | 428 kts | 317° |
| 2026-05-07 14:43 | 49.38912 | -102.91358 | 30075 ft | 428 kts | 317° |
| 2026-05-07 14:44 | 49.43152 | -102.97684 | 30074 ft | 428 kts | 317° |
| 2026-05-07 14:44 | 49.47423 | -103.04070 | 30075 ft | 428 kts | 317° |
| 2026-05-07 14:45 | 49.51690 | -103.10469 | 30076 ft | 428 kts | 317° |
| 2026-05-07 14:45 | 49.55967 | -103.16898 | 30077 ft | 429 kts | 317° |
| 2026-05-07 14:46 | 49.60223 | -103.23331 | 30077 ft | 429 kts | 316° |
| 2026-05-07 14:46 | 49.64437 | -103.29765 | 30077 ft | 429 kts | 316° |
| 2026-05-07 14:47 | 49.68683 | -103.36229 | 30066 ft | 429 kts | 316° |
| 2026-05-07 14:47 | 49.72940 | -103.42701 | 30085 ft | 429 kts | 316° |
| 2026-05-07 14:48 | 49.77200 | -103.49189 | 30081 ft | 429 kts | 316° |
| 2026-05-07 14:48 | 49.81458 | -103.55689 | 30068 ft | 429 kts | 316° |
| 2026-05-07 14:49 | 49.84979 | -103.61079 | 30085 ft | 429 kts | 316° |
| 2026-05-07 14:49 | 49.89232 | -103.67602 | 30070 ft | 430 kts | 316° |
| 2026-05-07 14:50 | 49.93485 | -103.74145 | 30075 ft | 430 kts | 316° |
| 2026-05-07 14:50 | 49.97739 | -103.80706 | 30073 ft | 431 kts | 316° |
| 2026-05-07 14:51 | 50.01967 | -103.87243 | 30079 ft | 431 kts | 316° |
| 2026-05-07 14:51 | 50.06220 | -103.93838 | 30081 ft | 431 kts | 316° |
| 2026-05-07 14:52 | 50.10471 | -104.00447 | 30077 ft | 431 kts | 316° |
| 2026-05-07 14:52 | 50.14721 | -104.07072 | 30079 ft | 431 kts | 316° |
| 2026-05-07 14:53 | 50.18952 | -104.13699 | 30082 ft | 431 kts | 315° |
| 2026-05-07 14:53 | 50.23169 | -104.20378 | 30079 ft | 432 kts | 315° |
| 2026-05-07 14:54 | 50.27387 | -104.27042 | 30071 ft | 432 kts | 315° |
| 2026-05-07 14:54 | 50.31589 | -104.33670 | 30063 ft | 431 kts | 315° |
| 2026-05-07 14:55 | 50.35818 | -104.40350 | 30055 ft | 431 kts | 315° |
| 2026-05-07 14:55 | 50.40042 | -104.47039 | 30018 ft | 432 kts | 315° |
| 2026-05-07 14:56 | 50.44267 | -104.53748 | 30045 ft | 433 kts | 315° |
| 2026-05-07 14:56 | 50.48499 | -104.60487 | 30042 ft | 433 kts | 315° |
| 2026-05-07 14:57 | 50.52725 | -104.67237 | 30044 ft | 433 kts | 315° |
| 2026-05-07 14:57 | 50.56948 | -104.73998 | 30054 ft | 433 kts | 315° |
| 2026-05-07 14:58 | 50.61163 | -104.80765 | 30060 ft | 433 kts | 315° |
| 2026-05-07 14:58 | 50.65352 | -104.87510 | 30086 ft | 434 kts | 315° |
| 2026-05-07 14:59 | 50.69581 | -104.94338 | 30418 ft | 429 kts | 315° |
| 2026-05-07 14:59 | 50.71557 | -104.97764 | 30778 ft | 427 kts | 310° |
| 2026-05-07 14:59 | 50.73393 | -105.01469 | 30944 ft | 431 kts | 308° |
| 2026-05-07 15:00 | 50.76930 | -105.09276 | 30987 ft | 442 kts | 307° |
| 2026-05-07 15:00 | 50.80491 | -105.17237 | 30965 ft | 442 kts | 307° |
| 2026-05-07 15:01 | 50.84067 | -105.25150 | 30985 ft | 443 kts | 307° |
| 2026-05-07 15:01 | 50.87646 | -105.33040 | 30985 ft | 444 kts | 307° |
| 2026-05-07 15:02 | 50.91244 | -105.40988 | 30982 ft | 444 kts | 307° |
| 2026-05-07 15:02 | 50.94841 | -105.48959 | 30977 ft | 444 kts | 306° |
| 2026-05-07 15:03 | 50.98426 | -105.56930 | 30968 ft | 444 kts | 306° |
| 2026-05-07 15:03 | 51.02005 | -105.64911 | 30971 ft | 444 kts | 306° |
| 2026-05-07 15:04 | 51.05578 | -105.72906 | 30966 ft | 445 kts | 306° |
| 2026-05-07 15:04 | 51.09152 | -105.80924 | 30966 ft | 444 kts | 306° |
| 2026-05-07 15:05 | 51.12736 | -105.88990 | 30956 ft | 447 kts | 306° |
| 2026-05-07 15:05 | 51.16303 | -105.97045 | 30963 ft | 447 kts | 306° |
| 2026-05-07 15:06 | 51.19879 | -106.05161 | 30961 ft | 447 kts | 305° |
| 2026-05-07 15:06 | 51.23416 | -106.13307 | 30957 ft | 448 kts | 305° |
| 2026-05-07 15:07 | 51.26974 | -106.21475 | 30952 ft | 448 kts | 306° |
| 2026-05-07 15:07 | 51.30540 | -106.29640 | 30954 ft | 448 kts | 306° |
| 2026-05-07 15:08 | 51.34106 | -106.37816 | 30952 ft | 448 kts | 306° |
| 2026-05-07 15:08 | 51.37665 | -106.46003 | 30957 ft | 448 kts | 305° |
| 2026-05-07 15:09 | 51.41201 | -106.54164 | 30945 ft | 449 kts | 305° |
| 2026-05-07 15:09 | 51.44767 | -106.62420 | 30952 ft | 449 kts | 305° |
| 2026-05-07 15:10 | 51.48321 | -106.70674 | 30952 ft | 449 kts | 305° |
| 2026-05-07 15:10 | 51.51867 | -106.78937 | 30952 ft | 449 kts | 305° |
| 2026-05-07 15:11 | 51.55379 | -106.87149 | 30955 ft | 449 kts | 305° |
| 2026-05-07 15:11 | 51.58910 | -106.95429 | 30949 ft | 449 kts | 305° |
| 2026-05-07 15:12 | 51.62439 | -107.03732 | 30943 ft | 449 kts | 305° |
| 2026-05-07 15:12 | 51.65965 | -107.12054 | 30945 ft | 449 kts | 305° |
| 2026-05-07 15:13 | 51.69429 | -107.20353 | 30932 ft | 448 kts | 304° |
| 2026-05-07 15:13 | 51.72915 | -107.28719 | 30947 ft | 449 kts | 304° |
| 2026-05-07 15:14 | 51.76414 | -107.37082 | 30939 ft | 449 kts | 304° |
| 2026-05-07 15:14 | 51.79917 | -107.45458 | 30939 ft | 449 kts | 304° |
| 2026-05-07 15:15 | 51.83391 | -107.53790 | 30941 ft | 449 kts | 304° |
| 2026-05-07 15:15 | 51.86886 | -107.62199 | 30930 ft | 449 kts | 304° |
| 2026-05-07 15:16 | 51.90369 | -107.70608 | 30931 ft | 449 kts | 304° |
| 2026-05-07 15:16 | 51.93825 | -107.78980 | 30925 ft | 449 kts | 304° |
| 2026-05-07 15:17 | 51.97298 | -107.87421 | 30901 ft | 450 kts | 304° |
| 2026-05-07 15:17 | 52.00765 | -107.95873 | 30918 ft | 449 kts | 304° |
| 2026-05-07 15:18 | 52.04224 | -108.04335 | 30918 ft | 449 kts | 304° |
| 2026-05-07 15:18 | 52.07657 | -108.12761 | 30917 ft | 449 kts | 303° |
| 2026-05-07 15:19 | 52.11098 | -108.21235 | 30925 ft | 449 kts | 303° |
| 2026-05-07 15:19 | 52.14523 | -108.29761 | 30916 ft | 449 kts | 303° |
| 2026-05-07 15:20 | 52.17920 | -108.38295 | 30919 ft | 449 kts | 303° |
| 2026-05-07 15:20 | 52.21336 | -108.46831 | 30913 ft | 449 kts | 303° |
| 2026-05-07 15:21 | 52.24737 | -108.55324 | 30922 ft | 449 kts | 303° |
| 2026-05-07 15:21 | 52.28149 | -108.63865 | 30912 ft | 449 kts | 303° |
| 2026-05-07 15:22 | 52.31560 | -108.72433 | 30915 ft | 449 kts | 303° |
| 2026-05-07 15:22 | 52.34964 | -108.81013 | 30909 ft | 450 kts | 303° |
| 2026-05-07 15:23 | 52.38361 | -108.89606 | 30907 ft | 449 kts | 303° |
| 2026-05-07 15:23 | 52.41731 | -108.98157 | 30906 ft | 449 kts | 303° |
| 2026-05-07 15:24 | 52.45121 | -109.06791 | 30903 ft | 449 kts | 303° |
| 2026-05-07 15:24 | 52.48504 | -109.15433 | 30892 ft | 450 kts | 303° |
| 2026-05-07 15:25 | 52.51861 | -109.24039 | 30896 ft | 450 kts | 302° |
| 2026-05-07 15:25 | 52.55228 | -109.32703 | 30872 ft | 450 kts | 302° |
| 2026-05-07 15:26 | 52.58581 | -109.41383 | 30883 ft | 448 kts | 302° |
| 2026-05-07 15:26 | 52.61890 | -109.50084 | 30882 ft | 448 kts | 302° |
| 2026-05-07 15:27 | 52.65209 | -109.58777 | 30888 ft | 448 kts | 302° |
| 2026-05-07 15:27 | 52.68532 | -109.67455 | 30882 ft | 448 kts | 302° |
| 2026-05-07 15:28 | 52.71861 | -109.76163 | 30878 ft | 448 kts | 302° |
| 2026-05-07 15:28 | 52.75184 | -109.84888 | 30878 ft | 448 kts | 302° |
| 2026-05-07 15:29 | 52.78499 | -109.93623 | 30875 ft | 448 kts | 302° |
| 2026-05-07 15:29 | 52.81805 | -110.02365 | 30878 ft | 449 kts | 302° |
| 2026-05-07 15:30 | 52.85106 | -110.11124 | 30874 ft | 449 kts | 302° |
| 2026-05-07 15:30 | 52.88388 | -110.19864 | 30873 ft | 449 kts | 302° |
| 2026-05-07 15:31 | 52.91677 | -110.28650 | 30875 ft | 449 kts | 302° |
| 2026-05-07 15:31 | 52.94963 | -110.37461 | 30876 ft | 449 kts | 302° |
| 2026-05-07 15:32 | 52.98241 | -110.46282 | 30876 ft | 449 kts | 302° |
| 2026-05-07 15:32 | 53.01509 | -110.55107 | 30870 ft | 449 kts | 302° |
| 2026-05-07 15:33 | 53.04723 | -110.63940 | 30867 ft | 449 kts | 301° |
| 2026-05-07 15:33 | 53.07953 | -110.72822 | 30867 ft | 449 kts | 302° |
| 2026-05-07 15:34 | 53.11192 | -110.81687 | 30853 ft | 448 kts | 302° |
| 2026-05-07 15:34 | 53.14417 | -110.90520 | 30859 ft | 445 kts | 302° |
| 2026-05-07 15:35 | 53.17629 | -110.99343 | 30862 ft | 445 kts | 302° |
| 2026-05-07 15:35 | 53.20834 | -111.08181 | 30857 ft | 446 kts | 302° |
| 2026-05-07 15:36 | 53.24033 | -111.17035 | 30857 ft | 446 kts | 302° |
| 2026-05-07 15:36 | 53.27210 | -111.25860 | 30849 ft | 446 kts | 302° |
| 2026-05-07 15:37 | 53.30401 | -111.34754 | 30854 ft | 446 kts | 302° |
| 2026-05-07 15:37 | 53.33582 | -111.43652 | 30857 ft | 445 kts | 302° |
| 2026-05-07 15:38 | 53.36750 | -111.52546 | 30855 ft | 444 kts | 302° |
| 2026-05-07 15:38 | 53.39375 | -111.59943 | 30828 ft | 444 kts | 302° |
| 2026-05-07 15:39 | 53.42507 | -111.68796 | 30850 ft | 438 kts | 302° |
| 2026-05-07 15:39 | 53.45589 | -111.77575 | 30855 ft | 437 kts | 302° |
| 2026-05-07 15:40 | 53.48645 | -111.86417 | 30858 ft | 438 kts | 302° |
| 2026-05-07 15:40 | 53.51716 | -111.95253 | 30861 ft | 438 kts | 302° |
| 2026-05-07 15:41 | 53.54777 | -112.04040 | 30853 ft | 438 kts | 302° |
| 2026-05-07 15:41 | 53.57855 | -112.12893 | 30851 ft | 438 kts | 302° |
| 2026-05-07 15:42 | 53.60928 | -112.21762 | 30857 ft | 438 kts | 302° |
| 2026-05-07 15:42 | 53.63994 | -112.30646 | 30854 ft | 438 kts | 302° |
| 2026-05-07 15:43 | 53.67050 | -112.39533 | 30851 ft | 437 kts | 302° |
| 2026-05-07 15:43 | 53.70075 | -112.48363 | 30874 ft | 431 kts | 302° |
| 2026-05-07 15:44 | 53.73043 | -112.57056 | 30860 ft | 430 kts | 302° |
| 2026-05-07 15:44 | 53.76034 | -112.65843 | 30857 ft | 431 kts | 302° |
| 2026-05-07 15:45 | 53.79020 | -112.74650 | 30890 ft | 431 kts | 302° |
| 2026-05-07 15:45 | 53.81996 | -112.83459 | 30886 ft | 431 kts | 302° |
| 2026-05-07 15:46 | 53.86423 | -112.96635 | 30887 ft | 431 kts | 301° |
| 2026-05-07 15:47 | 53.89347 | -113.05522 | 30905 ft | 431 kts | 301° |
| 2026-05-07 15:47 | 53.92273 | -113.14389 | 30892 ft | 431 kts | 301° |
| 2026-05-07 15:48 | 53.94798 | -113.23621 | 30891 ft | 433 kts | 291° |
| 2026-05-07 15:48 | 53.96273 | -113.33486 | 30905 ft | 434 kts | 286° |
| 2026-05-07 15:49 | 53.97574 | -113.43486 | 30908 ft | 433 kts | 287° |
| 2026-05-07 15:49 | 53.98922 | -113.53448 | 30913 ft | 433 kts | 287° |
| 2026-05-07 15:50 | 54.00304 | -113.63411 | 30917 ft | 433 kts | 287° |
| 2026-05-07 15:50 | 54.01688 | -113.73378 | 30917 ft | 433 kts | 287° |
| 2026-05-07 15:51 | 54.03065 | -113.83350 | 30919 ft | 433 kts | 287° |
| 2026-05-07 15:51 | 54.04423 | -113.93263 | 30918 ft | 433 kts | 286° |
| 2026-05-07 15:52 | 54.05782 | -114.03251 | 30921 ft | 433 kts | 286° |
| 2026-05-07 15:52 | 54.07334 | -114.13140 | 30928 ft | 430 kts | 292° |
| 2026-05-07 15:53 | 54.09581 | -114.22567 | 30926 ft | 429 kts | 296° |
| 2026-05-07 15:53 | 54.11977 | -114.31898 | 30926 ft | 429 kts | 296° |
| 2026-05-07 15:54 | 54.14338 | -114.41235 | 30934 ft | 429 kts | 295° |
| 2026-05-07 15:54 | 54.16672 | -114.50609 | 30935 ft | 429 kts | 295° |
| 2026-05-07 15:55 | 54.18976 | -114.59941 | 30926 ft | 429 kts | 295° |
| 2026-05-07 15:55 | 54.21296 | -114.69375 | 30936 ft | 431 kts | 295° |
| 2026-05-07 15:56 | 54.23611 | -114.78835 | 30940 ft | 431 kts | 295° |
| 2026-05-07 15:56 | 54.25918 | -114.88301 | 30940 ft | 431 kts | 294° |
| 2026-05-07 15:57 | 54.28218 | -114.97777 | 30937 ft | 430 kts | 294° |
| 2026-05-07 15:57 | 54.30509 | -115.07256 | 30946 ft | 431 kts | 294° |
| 2026-05-07 15:58 | 54.32779 | -115.16692 | 30947 ft | 431 kts | 294° |
| 2026-05-07 15:58 | 54.35054 | -115.26188 | 30947 ft | 431 kts | 294° |
| 2026-05-07 15:59 | 54.37323 | -115.35699 | 30939 ft | 431 kts | 294° |
| 2026-05-07 15:59 | 54.39579 | -115.45293 | 30965 ft | 434 kts | 293° |
| 2026-05-07 16:00 | 54.41808 | -115.54939 | 30958 ft | 434 kts | 293° |
| 2026-05-07 16:00 | 54.44038 | -115.64504 | 30966 ft | 434 kts | 293° |
| 2026-05-07 16:01 | 54.46291 | -115.74133 | 30966 ft | 434 kts | 294° |
| 2026-05-07 16:01 | 54.48540 | -115.83775 | 30966 ft | 434 kts | 293° |
| 2026-05-07 16:02 | 54.50782 | -115.93429 | 30966 ft | 434 kts | 293° |
| 2026-05-07 16:02 | 54.53018 | -116.03102 | 30969 ft | 434 kts | 293° |
| 2026-05-07 16:03 | 54.55243 | -116.12773 | 30943 ft | 435 kts | 293° |
| 2026-05-07 16:03 | 54.57464 | -116.22466 | 30968 ft | 439 kts | 293° |
| 2026-05-07 16:04 | 54.59696 | -116.32257 | 30965 ft | 438 kts | 292° |
| 2026-05-07 16:04 | 54.61915 | -116.42039 | 30968 ft | 438 kts | 292° |
| 2026-05-07 16:05 | 54.64130 | -116.51847 | 30954 ft | 438 kts | 292° |
| 2026-05-07 16:05 | 54.66340 | -116.61676 | 30954 ft | 438 kts | 292° |
| 2026-05-07 16:06 | 54.68525 | -116.71440 | 30965 ft | 438 kts | 292° |
| 2026-05-07 16:06 | 54.70680 | -116.81296 | 30963 ft | 438 kts | 292° |
| 2026-05-07 16:07 | 54.72825 | -116.91169 | 30942 ft | 438 kts | 292° |
| 2026-05-07 16:07 | 54.74993 | -117.01058 | 30966 ft | 440 kts | 292° |
| 2026-05-07 16:08 | 54.77170 | -117.10977 | 30965 ft | 440 kts | 292° |
| 2026-05-07 16:08 | 54.79340 | -117.20904 | 30965 ft | 440 kts | 292° |
| 2026-05-07 16:09 | 54.81499 | -117.30832 | 30975 ft | 440 kts | 292° |
| 2026-05-07 16:09 | 54.83651 | -117.40775 | 30957 ft | 439 kts | 292° |
| 2026-05-07 16:10 | 54.85791 | -117.50715 | 30973 ft | 439 kts | 292° |
| 2026-05-07 16:10 | 54.87912 | -117.60610 | 30974 ft | 440 kts | 291° |
| 2026-05-07 16:11 | 54.90036 | -117.70571 | 30980 ft | 440 kts | 291° |
| 2026-05-07 16:11 | 54.92154 | -117.80550 | 30984 ft | 440 kts | 291° |
| 2026-05-07 16:12 | 54.94265 | -117.90548 | 30986 ft | 440 kts | 291° |
| 2026-05-07 16:12 | 54.96365 | -118.00538 | 30986 ft | 438 kts | 291° |
| 2026-05-07 16:13 | 54.98442 | -118.10507 | 30986 ft | 438 kts | 291° |
| 2026-05-07 16:13 | 55.00457 | -118.20456 | 30987 ft | 438 kts | 291° |
| 2026-05-07 16:14 | 55.02503 | -118.30484 | 30992 ft | 438 kts | 291° |
| 2026-05-07 16:14 | 55.04560 | -118.40500 | 30990 ft | 438 kts | 291° |
| 2026-05-07 16:15 | 55.06613 | -118.50515 | 30961 ft | 438 kts | 291° |
| 2026-05-07 16:15 | 55.08665 | -118.60569 | 30996 ft | 441 kts | 291° |
| 2026-05-07 16:16 | 55.10712 | -118.70659 | 30983 ft | 440 kts | 291° |
| 2026-05-07 16:16 | 55.12736 | -118.80686 | 30990 ft | 440 kts | 291° |
| 2026-05-07 16:17 | 55.14766 | -118.90792 | 30987 ft | 440 kts | 290° |
| 2026-05-07 16:17 | 55.17187 | -119.00617 | 30987 ft | 439 kts | 298° |
| 2026-05-07 16:18 | 55.20201 | -119.09938 | 30999 ft | 439 kts | 301° |
| 2026-05-07 16:18 | 55.23263 | -119.19139 | 30999 ft | 439 kts | 300° |
| 2026-05-07 16:19 | 55.26322 | -119.28485 | 31008 ft | 439 kts | 300° |
| 2026-05-07 16:19 | 55.29317 | -119.37755 | 31003 ft | 439 kts | 300° |
| 2026-05-07 16:20 | 55.32322 | -119.47111 | 30996 ft | 440 kts | 300° |
| 2026-05-07 16:20 | 55.35330 | -119.56511 | 31001 ft | 441 kts | 300° |
| 2026-05-07 16:21 | 55.38328 | -119.65914 | 31025 ft | 441 kts | 300° |
| 2026-05-07 16:21 | 55.41295 | -119.75257 | 31009 ft | 439 kts | 299° |
| 2026-05-07 16:22 | 55.44269 | -119.84661 | 31009 ft | 439 kts | 299° |
| 2026-05-07 16:22 | 55.47235 | -119.94075 | 31005 ft | 439 kts | 299° |
| 2026-05-07 16:23 | 55.50192 | -120.03496 | 31012 ft | 439 kts | 299° |
| 2026-05-07 16:23 | 55.53142 | -120.12931 | 31013 ft | 439 kts | 299° |
| 2026-05-07 16:24 | 55.56086 | -120.22397 | 31009 ft | 439 kts | 299° |
| 2026-05-07 16:24 | 55.58957 | -120.31828 | 31010 ft | 438 kts | 298° |
| 2026-05-07 16:25 | 55.61850 | -120.41309 | 31009 ft | 438 kts | 298° |
| 2026-05-07 16:25 | 55.64762 | -120.50799 | 31008 ft | 439 kts | 298° |
| 2026-05-07 16:26 | 55.67676 | -120.60308 | 31012 ft | 439 kts | 298° |
| 2026-05-07 16:26 | 55.70584 | -120.69832 | 31030 ft | 439 kts | 298° |
| 2026-05-07 16:27 | 55.73481 | -120.79362 | 31024 ft | 438 kts | 298° |
| 2026-05-07 16:27 | 55.75879 | -120.87289 | 31026 ft | 438 kts | 298° |
| 2026-05-07 16:28 | 55.79208 | -120.98417 | 31037 ft | 438 kts | 298° |
| 2026-05-07 16:28 | 55.82073 | -121.07987 | 31027 ft | 438 kts | 298° |
| 2026-05-07 16:29 | 55.84458 | -121.15954 | 31027 ft | 439 kts | 298° |
| 2026-05-07 16:29 | 55.87323 | -121.25549 | 31036 ft | 438 kts | 298° |
| 2026-05-07 16:30 | 55.90176 | -121.35146 | 31037 ft | 438 kts | 297° |
| 2026-05-07 16:30 | 55.93018 | -121.44741 | 31039 ft | 438 kts | 297° |
| 2026-05-07 16:31 | 55.95859 | -121.54377 | 31028 ft | 438 kts | 297° |
| 2026-05-07 16:31 | 55.98691 | -121.64017 | 31038 ft | 438 kts | 297° |
| 2026-05-07 16:32 | 56.01498 | -121.73617 | 31054 ft | 438 kts | 297° |
| 2026-05-07 16:32 | 56.04319 | -121.83303 | 31043 ft | 439 kts | 297° |
| 2026-05-07 16:33 | 56.07134 | -121.93006 | 31049 ft | 439 kts | 297° |
| 2026-05-07 16:33 | 56.09920 | -122.02652 | 31050 ft | 439 kts | 297° |
| 2026-05-07 16:34 | 56.12717 | -122.12375 | 31038 ft | 439 kts | 297° |
| 2026-05-07 16:34 | 56.15483 | -122.22120 | 31032 ft | 438 kts | 296° |
| 2026-05-07 16:35 | 56.18224 | -122.31917 | 31030 ft | 439 kts | 296° |
| 2026-05-07 16:35 | 56.20966 | -122.41643 | 31028 ft | 439 kts | 296° |
| 2026-05-07 16:36 | 56.23733 | -122.51438 | 31028 ft | 439 kts | 296° |
| 2026-05-07 16:36 | 56.26497 | -122.61248 | 31020 ft | 439 kts | 296° |
| 2026-05-07 16:37 | 56.29246 | -122.71048 | 31010 ft | 438 kts | 296° |
| 2026-05-07 16:37 | 56.31984 | -122.80850 | 31014 ft | 437 kts | 296° |
| 2026-05-07 16:38 | 56.34711 | -122.90656 | 31001 ft | 435 kts | 295° |
| 2026-05-07 16:38 | 56.37388 | -123.00323 | 31001 ft | 434 kts | 295° |
| 2026-05-07 16:39 | 56.40078 | -123.10082 | 30995 ft | 434 kts | 295° |
| 2026-05-07 16:39 | 56.42764 | -123.19863 | 31004 ft | 435 kts | 295° |
| 2026-05-07 16:40 | 56.45442 | -123.29659 | 31002 ft | 435 kts | 295° |
| 2026-05-07 16:40 | 56.48105 | -123.39444 | 31013 ft | 434 kts | 295° |
| 2026-05-07 16:41 | 56.50771 | -123.49281 | 31004 ft | 434 kts | 295° |
| 2026-05-07 16:41 | 56.53371 | -123.59079 | 31009 ft | 434 kts | 295° |
| 2026-05-07 16:42 | 56.55982 | -123.68964 | 31009 ft | 434 kts | 295° |
| 2026-05-07 16:42 | 56.58603 | -123.78813 | 30997 ft | 434 kts | 295° |
| 2026-05-07 16:43 | 56.61244 | -123.88730 | 30997 ft | 436 kts | 295° |
| 2026-05-07 16:43 | 56.63852 | -123.98558 | 31023 ft | 434 kts | 295° |
| 2026-05-07 16:44 | 56.66467 | -124.08461 | 31011 ft | 434 kts | 295° |
| 2026-05-07 16:44 | 56.69069 | -124.18360 | 31016 ft | 434 kts | 294° |
| 2026-05-07 16:45 | 56.71669 | -124.28294 | 31023 ft | 435 kts | 294° |
| 2026-05-07 16:45 | 56.74262 | -124.38245 | 31019 ft | 434 kts | 294° |
| 2026-05-07 16:46 | 56.76846 | -124.48205 | 31027 ft | 435 kts | 294° |
| 2026-05-07 16:46 | 56.79408 | -124.58126 | 31026 ft | 434 kts | 294° |
| 2026-05-07 16:47 | 56.81979 | -124.68125 | 31036 ft | 435 kts | 294° |
| 2026-05-07 16:47 | 56.84540 | -124.78126 | 31030 ft | 434 kts | 294° |
| 2026-05-07 16:48 | 56.87087 | -124.88135 | 31029 ft | 434 kts | 294° |
| 2026-05-07 16:48 | 56.89582 | -124.98193 | 31025 ft | 433 kts | 294° |
| 2026-05-07 16:49 | 56.92062 | -125.08159 | 31040 ft | 432 kts | 294° |
| 2026-05-07 16:49 | 56.94547 | -125.18076 | 31033 ft | 426 kts | 294° |
| 2026-05-07 16:50 | 56.97015 | -125.27938 | 31028 ft | 426 kts | 294° |
| 2026-05-07 16:50 | 56.99483 | -125.37844 | 31042 ft | 427 kts | 294° |
| 2026-05-07 16:51 | 57.01945 | -125.47768 | 31049 ft | 427 kts | 294° |
| 2026-05-07 16:51 | 57.04381 | -125.57632 | 31055 ft | 426 kts | 293° |
| 2026-05-07 16:52 | 57.06822 | -125.67561 | 31064 ft | 426 kts | 293° |
| 2026-05-07 16:52 | 57.09255 | -125.77506 | 31066 ft | 426 kts | 293° |
| 2026-05-07 16:53 | 57.11683 | -125.87474 | 31082 ft | 426 kts | 293° |
| 2026-05-07 16:53 | 57.14085 | -125.97378 | 31083 ft | 427 kts | 293° |
| 2026-05-07 16:54 | 57.16495 | -126.07365 | 31096 ft | 426 kts | 293° |
| 2026-05-07 16:54 | 57.18885 | -126.17311 | 31090 ft | 422 kts | 293° |
| 2026-05-07 16:55 | 57.21248 | -126.27202 | 31104 ft | 421 kts | 292° |
| 2026-05-07 16:55 | 57.23553 | -126.37123 | 31112 ft | 421 kts | 292° |
| 2026-05-07 16:56 | 57.25873 | -126.47070 | 31114 ft | 422 kts | 292° |
| 2026-05-07 16:56 | 57.29360 | -126.61910 | 31112 ft | 421 kts | 292° |
| 2026-05-07 16:57 | 57.31687 | -126.71843 | 31121 ft | 421 kts | 292° |
| 2026-05-07 16:57 | 57.34012 | -126.81813 | 31162 ft | 421 kts | 292° |
| 2026-05-07 16:58 | 57.36331 | -126.91801 | 31130 ft | 422 kts | 292° |
| 2026-05-07 16:58 | 57.38644 | -127.01814 | 31144 ft | 423 kts | 292° |
| 2026-05-07 16:59 | 57.40949 | -127.11839 | 31135 ft | 422 kts | 292° |
| 2026-05-07 16:59 | 57.43247 | -127.21880 | 31142 ft | 423 kts | 292° |
| 2026-05-07 17:00 | 57.45538 | -127.31939 | 31135 ft | 420 kts | 292° |
| 2026-05-07 17:00 | 57.47775 | -127.41803 | 31161 ft | 413 kts | 291° |
| 2026-05-07 17:01 | 57.50003 | -127.51679 | 31147 ft | 415 kts | 291° |
| 2026-05-07 17:01 | 57.52234 | -127.61618 | 31146 ft | 416 kts | 291° |
| 2026-05-07 17:02 | 57.54445 | -127.71575 | 31147 ft | 415 kts | 291° |
| 2026-05-07 17:02 | 57.56608 | -127.81563 | 31154 ft | 416 kts | 291° |
| 2026-05-07 17:03 | 57.58776 | -127.91480 | 31156 ft | 415 kts | 291° |
| 2026-05-07 17:03 | 57.60969 | -128.01461 | 31177 ft | 416 kts | 291° |
| 2026-05-07 17:04 | 57.63163 | -128.11467 | 31151 ft | 416 kts | 291° |
| 2026-05-07 17:04 | 57.65348 | -128.21475 | 31148 ft | 416 kts | 291° |
| 2026-05-07 17:05 | 57.67512 | -128.31440 | 31160 ft | 417 kts | 291° |
| 2026-05-07 17:05 | 57.69696 | -128.41543 | 31167 ft | 416 kts | 291° |
| 2026-05-07 17:06 | 57.71844 | -128.51528 | 31164 ft | 416 kts | 290° |
| 2026-05-07 17:06 | 57.73996 | -128.61584 | 31199 ft | 417 kts | 290° |
| 2026-05-07 17:07 | 57.76143 | -128.71663 | 31165 ft | 417 kts | 290° |
| 2026-05-07 17:07 | 57.78287 | -128.81781 | 31178 ft | 417 kts | 290° |
| 2026-05-07 17:08 | 57.80421 | -128.91896 | 31165 ft | 417 kts | 290° |
| 2026-05-07 17:08 | 57.82550 | -129.02043 | 31171 ft | 417 kts | 290° |
| 2026-05-07 17:09 | 57.84653 | -129.12118 | 31175 ft | 417 kts | 290° |
| 2026-05-07 17:09 | 57.86714 | -129.22306 | 31192 ft | 417 kts | 289° |
| 2026-05-07 17:10 | 57.88780 | -129.32496 | 31171 ft | 416 kts | 289° |
| 2026-05-07 17:10 | 57.90859 | -129.42657 | 31173 ft | 417 kts | 289° |
| 2026-05-07 17:11 | 57.92941 | -129.52837 | 31174 ft | 417 kts | 289° |
| 2026-05-07 17:11 | 57.95018 | -129.63035 | 31180 ft | 417 kts | 289° |
| 2026-05-07 17:12 | 57.97084 | -129.73235 | 31166 ft | 416 kts | 289° |
| 2026-05-07 17:12 | 57.99124 | -129.83352 | 31171 ft | 414 kts | 289° |
| 2026-05-07 17:13 | 58.01165 | -129.93531 | 31184 ft | 415 kts | 289° |
| 2026-05-07 17:13 | 58.03202 | -130.03742 | 31179 ft | 416 kts | 289° |
| 2026-05-07 17:14 | 58.05231 | -130.13966 | 31184 ft | 416 kts | 289° |
| 2026-05-07 17:14 | 58.07249 | -130.24186 | 31183 ft | 415 kts | 289° |
| 2026-05-07 17:15 | 58.09251 | -130.34380 | 31188 ft | 416 kts | 289° |
| 2026-05-07 17:15 | 58.11256 | -130.44638 | 31192 ft | 416 kts | 289° |
| 2026-05-07 17:16 | 58.13252 | -130.54907 | 31193 ft | 415 kts | 288° |
| 2026-05-07 17:16 | 58.15210 | -130.65209 | 31199 ft | 415 kts | 288° |
| 2026-05-07 17:17 | 58.17126 | -130.75449 | 31197 ft | 415 kts | 288° |
| 2026-05-07 17:17 | 58.19080 | -130.85770 | 31193 ft | 415 kts | 288° |
| 2026-05-07 17:18 | 58.20708 | -130.94334 | 31190 ft | 415 kts | 288° |
| 2026-05-07 17:18 | 58.22664 | -131.04658 | 31158 ft | 415 kts | 288° |
| 2026-05-07 17:19 | 58.24592 | -131.14887 | 31207 ft | 410 kts | 288° |
| 2026-05-07 17:19 | 58.26508 | -131.25107 | 31202 ft | 411 kts | 288° |
| 2026-05-07 17:20 | 58.28421 | -131.35370 | 31216 ft | 412 kts | 288° |
| 2026-05-07 17:20 | 58.30324 | -131.45631 | 31210 ft | 411 kts | 288° |
| 2026-05-07 17:21 | 58.32205 | -131.55829 | 31212 ft | 411 kts | 288° |
| 2026-05-07 17:21 | 58.34092 | -131.66114 | 31223 ft | 411 kts | 287° |
| 2026-05-07 17:22 | 58.35971 | -131.76414 | 31236 ft | 412 kts | 287° |
| 2026-05-07 17:22 | 58.37845 | -131.86743 | 31239 ft | 414 kts | 287° |
| 2026-05-07 17:23 | 58.39717 | -131.97120 | 31232 ft | 414 kts | 287° |
| 2026-05-07 17:23 | 58.41577 | -132.07484 | 31232 ft | 413 kts | 287° |
| 2026-05-07 17:24 | 58.43371 | -132.17853 | 31248 ft | 415 kts | 286° |
| 2026-05-07 17:24 | 58.45185 | -132.28310 | 31244 ft | 414 kts | 287° |
| 2026-05-07 17:25 | 58.47012 | -132.38724 | 31290 ft | 412 kts | 286° |
| 2026-05-07 17:25 | 58.48824 | -132.49055 | 31271 ft | 409 kts | 286° |
| 2026-05-07 17:26 | 58.50631 | -132.59418 | 31272 ft | 411 kts | 286° |
| 2026-05-07 17:26 | 58.52420 | -132.69726 | 31283 ft | 410 kts | 286° |
| 2026-05-07 17:27 | 58.54212 | -132.80113 | 31285 ft | 411 kts | 286° |
| 2026-05-07 17:27 | 58.55998 | -132.90522 | 31301 ft | 410 kts | 286° |
| 2026-05-07 17:28 | 58.57772 | -133.00923 | 31299 ft | 410 kts | 285° |
| 2026-05-07 17:28 | 58.59533 | -133.11314 | 31297 ft | 414 kts | 285° |
| 2026-05-07 17:29 | 58.61306 | -133.21835 | 31300 ft | 415 kts | 285° |
| 2026-05-07 17:29 | 58.63069 | -133.32346 | 31307 ft | 414 kts | 285° |
| 2026-05-07 17:30 | 58.64827 | -133.42896 | 31303 ft | 414 kts | 285° |
| 2026-05-07 17:30 | 58.66575 | -133.53446 | 31304 ft | 415 kts | 285° |
| 2026-05-07 17:31 | 58.68289 | -133.64011 | 31301 ft | 414 kts | 284° |
| 2026-05-07 17:31 | 58.69962 | -133.74588 | 31292 ft | 413 kts | 284° |
| 2026-05-07 17:32 | 58.71644 | -133.85078 | 31302 ft | 413 kts | 284° |
| 2026-05-07 17:32 | 58.73345 | -133.95627 | 31308 ft | 411 kts | 284° |
| 2026-05-07 17:33 | 58.75040 | -134.06171 | 31309 ft | 413 kts | 284° |
| 2026-05-07 17:33 | 58.76728 | -134.16731 | 31310 ft | 412 kts | 284° |
| 2026-05-07 17:34 | 58.78403 | -134.27283 | 31309 ft | 412 kts | 284° |
| 2026-05-07 17:34 | 58.80064 | -134.37809 | 31318 ft | 413 kts | 284° |
| 2026-05-07 17:35 | 58.81731 | -134.48430 | 31301 ft | 414 kts | 284° |
| 2026-05-07 17:35 | 58.83393 | -134.59094 | 31293 ft | 414 kts | 284° |
| 2026-05-07 17:36 | 58.85043 | -134.69745 | 31298 ft | 414 kts | 284° |
| 2026-05-07 17:36 | 58.86686 | -134.80414 | 31282 ft | 413 kts | 283° |
| 2026-05-07 17:37 | 58.88317 | -134.91079 | 31290 ft | 415 kts | 283° |
| 2026-05-07 17:37 | 58.90654 | -135.01309 | 31288 ft | 421 kts | 295° |
| 2026-05-07 17:38 | 58.93783 | -135.10883 | 31265 ft | 426 kts | 298° |
| 2026-05-07 17:38 | 58.97017 | -135.20508 | 31267 ft | 426 kts | 297° |
| 2026-05-07 17:39 | 59.00188 | -135.30154 | 31271 ft | 423 kts | 297° |
| 2026-05-07 17:39 | 59.03321 | -135.39830 | 31271 ft | 423 kts | 296° |
| 2026-05-07 17:40 | 59.06428 | -135.49491 | 31271 ft | 425 kts | 296° |
| 2026-05-07 17:40 | 59.09552 | -135.59243 | 31270 ft | 424 kts | 296° |
| 2026-05-07 17:41 | 59.12668 | -135.69005 | 31266 ft | 425 kts | 296° |
| 2026-05-07 17:41 | 59.15788 | -135.78821 | 31260 ft | 425 kts | 296° |
| 2026-05-07 17:42 | 59.18896 | -135.88639 | 31268 ft | 425 kts | 296° |
| 2026-05-07 17:42 | 59.21979 | -135.98425 | 31271 ft | 426 kts | 296° |
| 2026-05-07 17:43 | 59.25077 | -136.08295 | 31273 ft | 427 kts | 296° |
| 2026-05-07 17:43 | 59.28185 | -136.18242 | 31272 ft | 428 kts | 296° |
| 2026-05-07 17:44 | 59.31276 | -136.28170 | 31261 ft | 426 kts | 296° |
| 2026-05-07 17:44 | 59.34330 | -136.38155 | 31263 ft | 427 kts | 295° |
| 2026-05-07 17:45 | 59.37344 | -136.48098 | 31262 ft | 426 kts | 295° |
| 2026-05-07 17:45 | 59.40398 | -136.58101 | 31273 ft | 426 kts | 295° |
| 2026-05-07 17:46 | 59.43454 | -136.68097 | 31274 ft | 426 kts | 295° |
| 2026-05-07 17:46 | 59.46510 | -136.78131 | 31269 ft | 427 kts | 295° |
| 2026-05-07 17:47 | 59.49557 | -136.88178 | 31273 ft | 427 kts | 295° |
| 2026-05-07 17:47 | 59.52599 | -136.98251 | 31271 ft | 427 kts | 295° |
| 2026-05-07 17:48 | 59.55607 | -137.08254 | 31275 ft | 427 kts | 295° |
| 2026-05-07 17:48 | 59.58625 | -137.18334 | 31274 ft | 427 kts | 295° |
| 2026-05-07 17:49 | 59.61645 | -137.28471 | 31270 ft | 428 kts | 295° |
| 2026-05-07 17:49 | 59.64659 | -137.38626 | 31272 ft | 428 kts | 295° |
| 2026-05-07 17:50 | 59.67662 | -137.48791 | 31260 ft | 427 kts | 295° |
| 2026-05-07 17:50 | 59.70654 | -137.58960 | 31272 ft | 427 kts | 295° |
| 2026-05-07 17:51 | 59.73637 | -137.69146 | 31296 ft | 428 kts | 294° |
| 2026-05-07 17:51 | 59.76582 | -137.79394 | 31270 ft | 426 kts | 294° |
| 2026-05-07 17:52 | 59.79499 | -137.89628 | 31287 ft | 426 kts | 294° |
| 2026-05-07 17:52 | 59.82421 | -137.99806 | 31279 ft | 426 kts | 294° |
| 2026-05-07 17:53 | 59.85357 | -138.10023 | 31296 ft | 426 kts | 294° |
| 2026-05-07 17:53 | 59.88295 | -138.20276 | 31310 ft | 426 kts | 294° |
| 2026-05-07 17:54 | 59.91228 | -138.30566 | 31280 ft | 427 kts | 294° |
| 2026-05-07 17:54 | 59.94156 | -138.40880 | 31278 ft | 427 kts | 294° |
| 2026-05-07 17:55 | 59.97077 | -138.51215 | 31271 ft | 428 kts | 294° |
| 2026-05-07 17:55 | 59.99966 | -138.61485 | 31278 ft | 427 kts | 293° |
| 2026-05-07 17:56 | 60.02867 | -138.71846 | 31246 ft | 427 kts | 293° |
| 2026-05-07 17:56 | 60.05756 | -138.82211 | 31272 ft | 429 kts | 293° |
| 2026-05-07 17:57 | 60.08165 | -138.90895 | 31270 ft | 429 kts | 293° |
| 2026-05-07 17:57 | 60.11271 | -139.03313 | 31271 ft | 422 kts | 283° |
| 2026-05-07 17:58 | 60.12663 | -139.14649 | 31277 ft | 417 kts | 277° |
| 2026-05-07 17:58 | 60.13752 | -139.26009 | 31279 ft | 417 kts | 277° |
| 2026-05-07 17:59 | 60.14891 | -139.37418 | 31270 ft | 416 kts | 278° |
| 2026-05-07 17:59 | 60.16071 | -139.48843 | 31283 ft | 419 kts | 277° |
| 2026-05-07 18:00 | 60.17259 | -139.60297 | 31285 ft | 419 kts | 277° |
| 2026-05-07 18:00 | 60.18439 | -139.71763 | 31277 ft | 418 kts | 277° |
| 2026-05-07 18:01 | 60.19603 | -139.83183 | 31274 ft | 418 kts | 277° |
| 2026-05-07 18:01 | 60.20761 | -139.94643 | 31274 ft | 417 kts | 277° |
| 2026-05-07 18:02 | 60.22468 | -140.11770 | 31275 ft | 419 kts | 277° |
| 2026-05-07 18:03 | 60.23606 | -140.23308 | 31270 ft | 421 kts | 277° |
| 2026-05-07 18:03 | 60.24737 | -140.34889 | 31253 ft | 421 kts | 277° |
| 2026-05-07 18:04 | 60.25859 | -140.46483 | 31272 ft | 421 kts | 277° |
| 2026-05-07 18:04 | 60.26968 | -140.58063 | 31271 ft | 422 kts | 276° |
| 2026-05-07 18:05 | 60.28044 | -140.69593 | 31268 ft | 420 kts | 276° |
| 2026-05-07 18:05 | 60.29068 | -140.81189 | 31260 ft | 420 kts | 276° |
| 2026-05-07 18:06 | 60.30118 | -140.92827 | 31264 ft | 421 kts | 276° |
| 2026-05-07 18:06 | 60.31007 | -141.02544 | 31267 ft | 425 kts | 276° |
| 2026-05-07 18:07 | 60.32249 | -141.16155 | 31257 ft | 423 kts | 276° |
| 2026-05-07 18:07 | 60.33132 | -141.25926 | 31262 ft | 423 kts | 276° |
| 2026-05-07 18:08 | 60.34169 | -141.37525 | 31261 ft | 422 kts | 276° |
| 2026-05-07 18:08 | 60.35202 | -141.49197 | 31252 ft | 422 kts | 276° |
| 2026-05-07 18:09 | 60.36225 | -141.60891 | 31263 ft | 422 kts | 276° |
| 2026-05-07 18:09 | 60.37241 | -141.72627 | 31258 ft | 426 kts | 276° |
| 2026-05-07 18:10 | 60.38253 | -141.84438 | 31241 ft | 426 kts | 275° |
| 2026-05-07 18:10 | 60.39252 | -141.96218 | 31242 ft | 425 kts | 275° |
| 2026-05-07 18:11 | 60.40232 | -142.07918 | 31229 ft | 424 kts | 275° |
| 2026-05-07 18:11 | 60.41209 | -142.19705 | 31231 ft | 425 kts | 275° |
| 2026-05-07 18:12 | 60.42171 | -142.31491 | 31240 ft | 425 kts | 275° |
| 2026-05-07 18:12 | 60.43064 | -142.43325 | 31235 ft | 426 kts | 274° |
| 2026-05-07 18:13 | 60.43975 | -142.55243 | 31232 ft | 429 kts | 275° |
| 2026-05-07 18:13 | 60.44907 | -142.67151 | 31224 ft | 427 kts | 275° |
| 2026-05-07 18:14 | 60.45831 | -142.78965 | 31225 ft | 427 kts | 275° |
| 2026-05-07 18:14 | 60.46751 | -142.90873 | 31224 ft | 427 kts | 275° |
| 2026-05-07 18:15 | 60.47660 | -143.02776 | 31222 ft | 427 kts | 275° |
| 2026-05-07 18:15 | 60.48559 | -143.14698 | 31153 ft | 426 kts | 275° |
| 2026-05-07 18:15 | 60.49000 | -143.20562 | 30998 ft | 414 kts | 274° |
| 2026-05-07 18:16 | 60.49428 | -143.26296 | 30807 ft | 410 kts | 274° |
| 2026-05-07 18:16 | 60.49850 | -143.32013 | 30656 ft | 410 kts | 274° |
| 2026-05-07 18:16 | 60.50268 | -143.37742 | 30511 ft | 410 kts | 274° |
| 2026-05-07 18:16 | 60.50678 | -143.43397 | 30378 ft | 410 kts | 274° |
| 2026-05-07 18:17 | 60.51092 | -143.49126 | 30210 ft | 410 kts | 274° |
| 2026-05-07 18:17 | 60.51504 | -143.54849 | 30037 ft | 410 kts | 274° |
| 2026-05-07 18:17 | 60.51914 | -143.60591 | 29852 ft | 411 kts | 274° |
| 2026-05-07 18:17 | 60.52322 | -143.66331 | 29690 ft | 412 kts | 274° |
| 2026-05-07 18:18 | 60.52729 | -143.72099 | 29522 ft | 413 kts | 274° |
| 2026-05-07 18:18 | 60.53135 | -143.77882 | 29349 ft | 413 kts | 274° |
| 2026-05-07 18:18 | 60.53539 | -143.83667 | 29229 ft | 414 kts | 274° |
| 2026-05-07 18:18 | 60.53941 | -143.89469 | 29050 ft | 416 kts | 274° |
| 2026-05-07 18:19 | 60.54343 | -143.95318 | 28884 ft | 417 kts | 274° |
| 2026-05-07 18:19 | 60.54726 | -144.01156 | 28717 ft | 418 kts | 273° |
| 2026-05-07 18:19 | 60.55089 | -144.07023 | 28551 ft | 419 kts | 273° |
| 2026-05-07 18:19 | 60.55455 | -144.12900 | 28385 ft | 419 kts | 274° |
| 2026-05-07 18:20 | 60.55825 | -144.18719 | 28218 ft | 421 kts | 274° |
| 2026-05-07 18:20 | 60.56206 | -144.24610 | 28059 ft | 421 kts | 274° |
| 2026-05-07 18:20 | 60.56592 | -144.30517 | 27892 ft | 422 kts | 274° |
| 2026-05-07 18:20 | 60.56979 | -144.36434 | 27729 ft | 423 kts | 274° |
| 2026-05-07 18:21 | 60.57366 | -144.42376 | 27572 ft | 424 kts | 274° |
| 2026-05-07 18:21 | 60.57752 | -144.48318 | 27406 ft | 424 kts | 274° |
| 2026-05-07 18:21 | 60.58134 | -144.54267 | 27248 ft | 425 kts | 274° |
| 2026-05-07 18:21 | 60.58515 | -144.60233 | 27127 ft | 425 kts | 274° |
| 2026-05-07 18:22 | 60.58894 | -144.66212 | 26970 ft | 426 kts | 274° |
| 2026-05-07 18:22 | 60.59145 | -144.70184 | 26870 ft | 427 kts | 274° |
| 2026-05-07 18:22 | 60.59647 | -144.78214 | 26655 ft | 428 kts | 274° |
| 2026-05-07 18:22 | 60.60015 | -144.84153 | 26502 ft | 428 kts | 274° |
| 2026-05-07 18:23 | 60.60387 | -144.90190 | 26349 ft | 429 kts | 274° |
| 2026-05-07 18:23 | 60.60755 | -144.96219 | 26195 ft | 429 kts | 274° |
| 2026-05-07 18:23 | 60.61121 | -145.02241 | 26035 ft | 428 kts | 274° |
| 2026-05-07 18:23 | 60.61482 | -145.08252 | 25890 ft | 428 kts | 274° |
| 2026-05-07 18:24 | 60.61842 | -145.14262 | 25738 ft | 427 kts | 274° |
| 2026-05-07 18:24 | 60.62198 | -145.20273 | 25587 ft | 427 kts | 274° |
| 2026-05-07 18:24 | 60.62550 | -145.26269 | 25440 ft | 426 kts | 274° |
| 2026-05-07 18:24 | 60.62899 | -145.32257 | 25300 ft | 425 kts | 274° |
| 2026-05-07 18:25 | 60.63245 | -145.38242 | 25179 ft | 425 kts | 274° |
| 2026-05-07 18:25 | 60.63587 | -145.44220 | 25026 ft | 425 kts | 274° |
| 2026-05-07 18:25 | 60.63928 | -145.50201 | 24888 ft | 424 kts | 274° |
| 2026-05-07 18:25 | 60.64265 | -145.56166 | 24733 ft | 423 kts | 274° |
| 2026-05-07 18:26 | 60.64595 | -145.62065 | 24594 ft | 422 kts | 274° |
| 2026-05-07 18:26 | 60.64913 | -145.68018 | 24451 ft | 422 kts | 273° |
| 2026-05-07 18:26 | 60.65205 | -145.73954 | 24311 ft | 421 kts | 273° |
| 2026-05-07 18:26 | 60.65498 | -145.79916 | 24167 ft | 421 kts | 273° |
| 2026-05-07 18:27 | 60.65796 | -145.85838 | 24023 ft | 420 kts | 273° |
| 2026-05-07 18:27 | 60.66102 | -145.91763 | 23882 ft | 419 kts | 273° |
| 2026-05-07 18:27 | 60.66477 | -145.97644 | 23732 ft | 421 kts | 278° |
| 2026-05-07 18:27 | 60.67266 | -146.03423 | 23566 ft | 423 kts | 285° |
| 2026-05-07 18:28 | 60.68318 | -146.09050 | 23435 ft | 424 kts | 289° |
| 2026-05-07 18:28 | 60.69465 | -146.14597 | 23265 ft | 425 kts | 289° |
| 2026-05-07 18:28 | 60.70621 | -146.20074 | 23100 ft | 425 kts | 289° |
| 2026-05-07 18:28 | 60.71779 | -146.25611 | 22940 ft | 423 kts | 289° |
| 2026-05-07 18:29 | 60.72920 | -146.31163 | 22769 ft | 423 kts | 289° |
| 2026-05-07 18:29 | 60.74041 | -146.36702 | 22602 ft | 422 kts | 289° |
| 2026-05-07 18:29 | 60.75152 | -146.42253 | 22437 ft | 421 kts | 289° |
| 2026-05-07 18:29 | 60.76254 | -146.47793 | 22240 ft | 420 kts | 288° |
| 2026-05-07 18:30 | 60.77349 | -146.53331 | 22094 ft | 420 kts | 288° |
| 2026-05-07 18:30 | 60.78440 | -146.58863 | 21933 ft | 418 kts | 288° |
| 2026-05-07 18:30 | 60.79526 | -146.64389 | 21773 ft | 417 kts | 288° |
| 2026-05-07 18:30 | 60.80608 | -146.69906 | 21621 ft | 417 kts | 288° |
| 2026-05-07 18:31 | 60.81674 | -146.75357 | 21483 ft | 416 kts | 288° |
| 2026-05-07 18:31 | 60.82749 | -146.80869 | 21324 ft | 416 kts | 288° |
| 2026-05-07 18:31 | 60.83820 | -146.86373 | 21167 ft | 415 kts | 288° |
| 2026-05-07 18:31 | 60.84889 | -146.91883 | 21013 ft | 414 kts | 288° |
| 2026-05-07 18:32 | 60.85949 | -146.97360 | 20856 ft | 413 kts | 288° |
| 2026-05-07 18:32 | 60.87006 | -147.02842 | 20700 ft | 413 kts | 288° |
| 2026-05-07 18:32 | 60.88059 | -147.08315 | 20545 ft | 412 kts | 288° |
| 2026-05-07 18:32 | 60.89108 | -147.13780 | 20384 ft | 411 kts | 288° |
| 2026-05-07 18:33 | 60.90154 | -147.19248 | 20232 ft | 411 kts | 288° |
| 2026-05-07 18:33 | 60.91197 | -147.24713 | 20066 ft | 410 kts | 288° |
| 2026-05-07 18:33 | 60.92220 | -147.30088 | 19932 ft | 409 kts | 288° |
| 2026-05-07 18:33 | 60.93256 | -147.35550 | 19805 ft | 408 kts | 288° |
| 2026-05-07 18:34 | 60.94286 | -147.40994 | 19654 ft | 408 kts | 288° |
| 2026-05-07 18:34 | 60.95309 | -147.46414 | 19510 ft | 407 kts | 288° |
| 2026-05-07 18:34 | 60.96330 | -147.51840 | 19347 ft | 406 kts | 288° |
| 2026-05-07 18:34 | 60.97342 | -147.57269 | 19201 ft | 406 kts | 287° |
| 2026-05-07 18:35 | 60.98326 | -147.62706 | 19046 ft | 404 kts | 287° |
| 2026-05-07 18:35 | 60.99307 | -147.68142 | 18914 ft | 404 kts | 287° |
| 2026-05-07 18:35 | 61.00292 | -147.73567 | 18763 ft | 403 kts | 287° |
| 2026-05-07 18:35 | 61.01284 | -147.78992 | 18610 ft | 403 kts | 288° |
| 2026-05-07 18:36 | 61.02262 | -147.84312 | 18424 ft | 403 kts | 288° |
| 2026-05-07 18:36 | 61.03256 | -147.89713 | 18195 ft | 401 kts | 288° |
| 2026-05-07 18:36 | 61.04245 | -147.95090 | 17927 ft | 400 kts | 288° |
| 2026-05-07 18:36 | 61.05230 | -148.00458 | 17660 ft | 399 kts | 287° |
| 2026-05-07 18:37 | 61.06209 | -148.05805 | 17382 ft | 397 kts | 287° |
| 2026-05-07 18:37 | 61.07184 | -148.11144 | 17040 ft | 396 kts | 288° |
| 2026-05-07 18:37 | 61.08154 | -148.16474 | 16598 ft | 395 kts | 287° |
| 2026-05-07 18:37 | 61.09115 | -148.21767 | 16143 ft | 393 kts | 287° |
| 2026-05-07 18:38 | 61.10072 | -148.27050 | 15657 ft | 391 kts | 287° |
| 2026-05-07 18:38 | 61.11023 | -148.32316 | 15194 ft | 390 kts | 287° |
| 2026-05-07 18:38 | 61.11968 | -148.37569 | 14741 ft | 388 kts | 287° |
| 2026-05-07 18:38 | 61.12894 | -148.42727 | 14295 ft | 386 kts | 287° |
| 2026-05-07 18:39 | 61.13823 | -148.47930 | 13831 ft | 385 kts | 287° |
| 2026-05-07 18:39 | 61.14732 | -148.53140 | 13313 ft | 384 kts | 287° |
| 2026-05-07 18:39 | 61.15634 | -148.58335 | 12827 ft | 383 kts | 287° |
| 2026-05-07 18:39 | 61.16535 | -148.63514 | 12357 ft | 382 kts | 287° |
| 2026-05-07 18:40 | 61.17438 | -148.68684 | 11884 ft | 380 kts | 287° |
| 2026-05-07 18:40 | 61.18338 | -148.73834 | 11416 ft | 378 kts | 287° |
| 2026-05-07 18:40 | 61.19233 | -148.78949 | 10930 ft | 377 kts | 287° |
| 2026-05-07 18:40 | 61.20125 | -148.84058 | 10531 ft | 376 kts | 287° |
| 2026-05-07 18:41 | 61.21014 | -148.89158 | 10188 ft | 375 kts | 287° |
| 2026-05-07 18:41 | 61.21897 | -148.94239 | 9857 ft | 372 kts | 287° |
| 2026-05-07 18:41 | 61.22752 | -148.99153 | 9587 ft | 352 kts | 287° |
| 2026-05-07 18:41 | 61.23549 | -149.03742 | 9374 ft | 332 kts | 287° |
| 2026-05-07 18:42 | 61.24231 | -149.08185 | 9183 ft | 312 kts | 279° |
| 2026-05-07 18:42 | 61.24604 | -149.12460 | 9151 ft | 290 kts | 275° |
| 2026-05-07 18:42 | 61.24862 | -149.16469 | 9119 ft | 273 kts | 273° |
| 2026-05-07 18:42 | 61.25092 | -149.20418 | 9081 ft | 275 kts | 273° |
| 2026-05-07 18:43 | 61.25318 | -149.24389 | 8928 ft | 278 kts | 273° |
| 2026-05-07 18:43 | 61.25543 | -149.28277 | 8683 ft | 273 kts | 273° |
| 2026-05-07 18:43 | 61.25772 | -149.32190 | 8492 ft | 272 kts | 274° |
| 2026-05-07 18:43 | 61.26002 | -149.36080 | 8299 ft | 270 kts | 274° |
| 2026-05-07 18:44 | 61.26230 | -149.39944 | 8106 ft | 269 kts | 274° |
| 2026-05-07 18:44 | 61.26454 | -149.43809 | 7904 ft | 268 kts | 274° |
| 2026-05-07 18:44 | 61.26673 | -149.47671 | 7683 ft | 270 kts | 273° |
| 2026-05-07 18:44 | 61.26892 | -149.51548 | 7224 ft | 270 kts | 273° |
| 2026-05-07 18:45 | 61.27111 | -149.55413 | 6770 ft | 268 kts | 274° |
| 2026-05-07 18:45 | 61.27330 | -149.59242 | 6289 ft | 266 kts | 274° |
| 2026-05-07 18:45 | 61.27544 | -149.63004 | 5825 ft | 264 kts | 274° |
| 2026-05-07 18:45 | 61.27759 | -149.66796 | 5354 ft | 264 kts | 274° |
| 2026-05-07 18:46 | 61.28070 | -149.70547 | 4872 ft | 265 kts | 287° |
| 2026-05-07 18:46 | 61.28843 | -149.74045 | 4460 ft | 265 kts | 297° |
| 2026-05-07 18:46 | 61.29758 | -149.77330 | 4122 ft | 261 kts | 300° |
| 2026-05-07 18:46 | 61.30692 | -149.80554 | 3791 ft | 258 kts | 300° |
| 2026-05-07 18:47 | 61.31620 | -149.83734 | 3474 ft | 256 kts | 300° |
| 2026-05-07 18:47 | 61.32540 | -149.86887 | 3157 ft | 255 kts | 300° |
| 2026-05-07 18:47 | 61.33459 | -149.90039 | 2989 ft | 253 kts | 300° |
| 2026-05-07 18:47 | 61.34416 | -149.93127 | 2976 ft | 254 kts | 307° |
| 2026-05-07 18:48 | 61.35699 | -149.95584 | 2968 ft | 254 kts | 330° |
| 2026-05-07 18:48 | 61.37208 | -149.97435 | 2927 ft | 252 kts | 318° |
| 2026-05-07 18:48 | 61.38106 | -150.00387 | 2745 ft | 234 kts | 281° |
| 2026-05-07 18:48 | 61.37957 | -150.03517 | 2530 ft | 209 kts | 244° |
| 2026-05-07 18:49 | 61.37187 | -150.05932 | 2341 ft | 198 kts | 226° |
| 2026-05-07 18:49 | 61.36133 | -150.07730 | 2154 ft | 196 kts | 209° |
| 2026-05-07 18:49 | 61.34869 | -150.08744 | 1968 ft | 193 kts | 191° |
| 2026-05-07 18:49 | 61.33559 | -150.08771 | 1798 ft | 184 kts | 170° |
| 2026-05-07 18:50 | 61.32359 | -150.08273 | 1590 ft | 166 kts | 168° |
| 2026-05-07 18:50 | 61.31252 | -150.07766 | 1585 ft | 163 kts | 167° |
| 2026-05-07 18:50 | 61.30158 | -150.07163 | 1572 ft | 161 kts | 165° |
| 2026-05-07 18:50 | 61.29084 | -150.06536 | 1582 ft | 160 kts | 165° |
| 2026-05-07 18:51 | 61.28027 | -150.05934 | 1588 ft | 158 kts | 165° |
| 2026-05-07 18:51 | 61.26966 | -150.05336 | 1587 ft | 157 kts | 165° |
| 2026-05-07 18:51 | 61.25922 | -150.04750 | 1558 ft | 154 kts | 165° |
| 2026-05-07 18:51 | 61.24867 | -150.04158 | 1332 ft | 168 kts | 165° |
| 2026-05-07 18:52 | 61.23756 | -150.03490 | 991 ft | 163 kts | 165° |
| 2026-05-07 18:52 | 61.22661 | -150.02872 | 659 ft | 158 kts | 167° |
| 2026-05-07 18:52 | 61.21591 | -150.02364 | 571 ft | 160 kts | 167° |
| 2026-05-07 18:52 | 61.20546 | -150.01779 | 370 ft | 153 kts | 163° |
| 2026-05-07 18:53 | 61.19547 | -150.01202 | 163 ft | 138 kts | 165° |
| 2026-05-07 18:53 | 61.18774 | -150.00775 | 144 ft | 93 kts | 165° |
| 2026-05-07 18:53 | 61.18274 | -150.00498 | 135 ft | 57 kts | 165° |
| 2026-05-07 18:53 | 61.18040 | -150.00360 | 131 ft | 28 kts | 161° |
| 2026-05-07 18:54 | 61.17888 | -150.00199 | 126 ft | 21 kts | 143° |
| 2026-05-07 18:54 | 61.17812 | -150.00041 | 131 ft | 10 kts | 117° |
| 2026-05-07 18:54 | 61.17823 | -149.99947 | 121 ft | 5 kts | 46° |
| 2026-05-07 18:54 | 61.17853 | -149.99926 | 124 ft | 7 kts | 6° |
| 2026-05-07 18:55 | 61.17929 | -149.99956 | 123 ft | 13 kts | 345° |
| 2026-05-07 18:55 | 61.18016 | -150.00005 | 127 ft | 12 kts | 345° |
| 2026-05-07 18:55 | 61.18099 | -150.00052 | 137 ft | 13 kts | 345° |
| 2026-05-07 18:55 | 61.18194 | -150.00105 | 121 ft | 15 kts | 345° |
| 2026-05-07 18:56 | 61.18299 | -150.00163 | 123 ft | 16 kts | 345° |
| 2026-05-07 18:56 | 61.18411 | -150.00227 | 126 ft | 17 kts | 345° |
| 2026-05-07 18:56 | 61.18507 | -150.00245 | 126 ft | 10 kts | 21° |
| 2026-05-07 18:56 | 61.18546 | -150.00143 | 122 ft | 10 kts | 69° |
| 2026-05-07 18:57 | 61.18562 | -150.00038 | 118 ft | 12 kts | 74° |
| 2026-05-07 18:57 | 61.18585 | -149.99891 | 122 ft | 9 kts | 71° |
| 2026-05-07 18:57 | 61.18620 | -149.99811 | 116 ft | 8 kts | 26° |
| 2026-05-07 18:57 | 61.18664 | -149.99807 | 115 ft | 0 kts | 350° |